<?xml version="1.0" encoding="UTF-8" standalone="no" ?>
<gpx xmlns="http://www.topografix.com/GPX/1/1" xmlns:xsi="http://www.w3.org/2001/XMLSchema-instance" xsi:schemaLocation="http://www.topografix.com/GPX/1/1 http://www.topografix.com/GPX/1/1/gpx.xsd" version="1.1" creator="VisuGPX - https://www.visugpx.com">
  <metadata>
    <name>Course à pied dans l'après-midi</name>
  </metadata>
  <trk>
    <name><![CDATA[Course à pied dans l'après-midi_1]]></name>
    <trkseg>
      <trkpt lat="48.72775" lon="7.04504">
        <ele>252.3</ele>
        <time>2024-02-01T16:30:23Z</time>
      </trkpt>
      <trkpt lat="48.72775" lon="7.04504">
        <ele>252.3</ele>
        <time>2024-02-01T16:30:35Z</time>
      </trkpt>
      <trkpt lat="48.72787" lon="7.0448">
        <ele>252</ele>
        <time>2024-02-01T16:30:45Z</time>
      </trkpt>
      <trkpt lat="48.72799" lon="7.04459">
        <ele>251.7</ele>
        <time>2024-02-01T16:30:54Z</time>
      </trkpt>
      <trkpt lat="48.728" lon="7.04429">
        <ele>251.5</ele>
        <time>2024-02-01T16:31:03Z</time>
      </trkpt>
      <trkpt lat="48.72803" lon="7.044">
        <ele>251.1</ele>
        <time>2024-02-01T16:31:11Z</time>
      </trkpt>
      <trkpt lat="48.72798" lon="7.04373">
        <ele>250.6</ele>
        <time>2024-02-01T16:31:18Z</time>
      </trkpt>
      <trkpt lat="48.728" lon="7.04347">
        <ele>250.4</ele>
        <time>2024-02-01T16:31:26Z</time>
      </trkpt>
      <trkpt lat="48.72807" lon="7.04335">
        <ele>250.4</ele>
        <time>2024-02-01T16:31:31Z</time>
      </trkpt>
      <trkpt lat="48.72794" lon="7.04313">
        <ele>249.7</ele>
        <time>2024-02-01T16:31:40Z</time>
      </trkpt>
      <trkpt lat="48.7278" lon="7.04293">
        <ele>249.2</ele>
        <time>2024-02-01T16:31:48Z</time>
      </trkpt>
      <trkpt lat="48.72766" lon="7.04275">
        <ele>248.7</ele>
        <time>2024-02-01T16:31:56Z</time>
      </trkpt>
      <trkpt lat="48.72752" lon="7.04255">
        <ele>248.3</ele>
        <time>2024-02-01T16:32:04Z</time>
      </trkpt>
      <trkpt lat="48.72738" lon="7.04238">
        <ele>247.9</ele>
        <time>2024-02-01T16:32:12Z</time>
      </trkpt>
      <trkpt lat="48.72734" lon="7.04228">
        <ele>247.8</ele>
        <time>2024-02-01T16:32:16Z</time>
      </trkpt>
      <trkpt lat="48.72736" lon="7.04223">
        <ele>247.9</ele>
        <time>2024-02-01T16:32:18Z</time>
      </trkpt>
      <trkpt lat="48.72751" lon="7.04204">
        <ele>248</ele>
        <time>2024-02-01T16:32:26Z</time>
      </trkpt>
      <trkpt lat="48.72767" lon="7.04185">
        <ele>248.2</ele>
        <time>2024-02-01T16:32:34Z</time>
      </trkpt>
      <trkpt lat="48.72779" lon="7.04164">
        <ele>248.5</ele>
        <time>2024-02-01T16:32:42Z</time>
      </trkpt>
      <trkpt lat="48.7278" lon="7.04162">
        <ele>248.7</ele>
        <time>2024-02-01T16:32:43Z</time>
      </trkpt>
      <trkpt lat="48.72794" lon="7.04178">
        <ele>249.1</ele>
        <time>2024-02-01T16:32:51Z</time>
      </trkpt>
      <trkpt lat="48.72808" lon="7.04197">
        <ele>249.3</ele>
        <time>2024-02-01T16:32:59Z</time>
      </trkpt>
      <trkpt lat="48.72824" lon="7.04211">
        <ele>249.4</ele>
        <time>2024-02-01T16:33:08Z</time>
      </trkpt>
      <trkpt lat="48.72826" lon="7.04212">
        <ele>249.6</ele>
        <time>2024-02-01T16:33:09Z</time>
      </trkpt>
      <trkpt lat="48.72829" lon="7.04188">
        <ele>250</ele>
        <time>2024-02-01T16:33:19Z</time>
      </trkpt>
      <trkpt lat="48.72827" lon="7.04159">
        <ele>248.9</ele>
        <time>2024-02-01T16:33:26Z</time>
      </trkpt>
      <trkpt lat="48.72831" lon="7.0413">
        <ele>247.7</ele>
        <time>2024-02-01T16:33:34Z</time>
      </trkpt>
      <trkpt lat="48.72844" lon="7.04109">
        <ele>247.2</ele>
        <time>2024-02-01T16:33:42Z</time>
      </trkpt>
      <trkpt lat="48.72862" lon="7.04093">
        <ele>247</ele>
        <time>2024-02-01T16:33:49Z</time>
      </trkpt>
      <trkpt lat="48.72874" lon="7.04073">
        <ele>247</ele>
        <time>2024-02-01T16:33:56Z</time>
      </trkpt>
      <trkpt lat="48.72869" lon="7.04042">
        <ele>247.2</ele>
        <time>2024-02-01T16:34:03Z</time>
      </trkpt>
      <trkpt lat="48.72862" lon="7.04014">
        <ele>247.4</ele>
        <time>2024-02-01T16:34:10Z</time>
      </trkpt>
      <trkpt lat="48.72843" lon="7.04005">
        <ele>247.5</ele>
        <time>2024-02-01T16:34:17Z</time>
      </trkpt>
      <trkpt lat="48.72823" lon="7.03998">
        <ele>247.4</ele>
        <time>2024-02-01T16:34:24Z</time>
      </trkpt>
      <trkpt lat="48.72805" lon="7.03988">
        <ele>247</ele>
        <time>2024-02-01T16:34:31Z</time>
      </trkpt>
      <trkpt lat="48.72787" lon="7.03985">
        <ele>246.9</ele>
        <time>2024-02-01T16:34:38Z</time>
      </trkpt>
      <trkpt lat="48.7277" lon="7.03997">
        <ele>246.8</ele>
        <time>2024-02-01T16:34:46Z</time>
      </trkpt>
      <trkpt lat="48.72754" lon="7.04012">
        <ele>246.8</ele>
        <time>2024-02-01T16:34:53Z</time>
      </trkpt>
      <trkpt lat="48.72736" lon="7.04021">
        <ele>246.8</ele>
        <time>2024-02-01T16:35:01Z</time>
      </trkpt>
      <trkpt lat="48.72721" lon="7.04008">
        <ele>246.8</ele>
        <time>2024-02-01T16:35:08Z</time>
      </trkpt>
      <trkpt lat="48.72702" lon="7.03994">
        <ele>246.8</ele>
        <time>2024-02-01T16:35:15Z</time>
      </trkpt>
      <trkpt lat="48.72685" lon="7.0398">
        <ele>246.9</ele>
        <time>2024-02-01T16:35:22Z</time>
      </trkpt>
      <trkpt lat="48.72671" lon="7.03962">
        <ele>246.9</ele>
        <time>2024-02-01T16:35:28Z</time>
      </trkpt>
      <trkpt lat="48.7266" lon="7.0394">
        <ele>246.9</ele>
        <time>2024-02-01T16:35:35Z</time>
      </trkpt>
      <trkpt lat="48.72648" lon="7.03915">
        <ele>247</ele>
        <time>2024-02-01T16:35:43Z</time>
      </trkpt>
      <trkpt lat="48.72635" lon="7.03893">
        <ele>247.2</ele>
        <time>2024-02-01T16:35:51Z</time>
      </trkpt>
      <trkpt lat="48.72619" lon="7.03876">
        <ele>247.4</ele>
        <time>2024-02-01T16:35:59Z</time>
      </trkpt>
      <trkpt lat="48.72605" lon="7.03855">
        <ele>247.6</ele>
        <time>2024-02-01T16:36:07Z</time>
      </trkpt>
      <trkpt lat="48.72592" lon="7.03834">
        <ele>247.7</ele>
        <time>2024-02-01T16:36:14Z</time>
      </trkpt>
      <trkpt lat="48.72581" lon="7.03809">
        <ele>247.8</ele>
        <time>2024-02-01T16:36:21Z</time>
      </trkpt>
      <trkpt lat="48.72575" lon="7.03783">
        <ele>247.9</ele>
        <time>2024-02-01T16:36:27Z</time>
      </trkpt>
      <trkpt lat="48.72571" lon="7.03753">
        <ele>247.9</ele>
        <time>2024-02-01T16:36:34Z</time>
      </trkpt>
      <trkpt lat="48.72572" lon="7.03723">
        <ele>247.8</ele>
        <time>2024-02-01T16:36:41Z</time>
      </trkpt>
      <trkpt lat="48.72573" lon="7.03694">
        <ele>247.7</ele>
        <time>2024-02-01T16:36:48Z</time>
      </trkpt>
      <trkpt lat="48.72567" lon="7.03666">
        <ele>247.8</ele>
        <time>2024-02-01T16:36:55Z</time>
      </trkpt>
      <trkpt lat="48.72553" lon="7.03646">
        <ele>247.9</ele>
        <time>2024-02-01T16:37:02Z</time>
      </trkpt>
      <trkpt lat="48.72541" lon="7.03621">
        <ele>247.9</ele>
        <time>2024-02-01T16:37:10Z</time>
      </trkpt>
      <trkpt lat="48.72543" lon="7.03593">
        <ele>247.8</ele>
        <time>2024-02-01T16:37:16Z</time>
      </trkpt>
      <trkpt lat="48.72551" lon="7.03567">
        <ele>247.6</ele>
        <time>2024-02-01T16:37:23Z</time>
      </trkpt>
      <trkpt lat="48.72542" lon="7.03539">
        <ele>247.5</ele>
        <time>2024-02-01T16:37:30Z</time>
      </trkpt>
      <trkpt lat="48.72534" lon="7.03511">
        <ele>247.6</ele>
        <time>2024-02-01T16:37:37Z</time>
      </trkpt>
      <trkpt lat="48.72525" lon="7.03482">
        <ele>247.6</ele>
        <time>2024-02-01T16:37:44Z</time>
      </trkpt>
      <trkpt lat="48.72515" lon="7.03458">
        <ele>247.7</ele>
        <time>2024-02-01T16:37:51Z</time>
      </trkpt>
      <trkpt lat="48.72504" lon="7.03431">
        <ele>247.7</ele>
        <time>2024-02-01T16:37:58Z</time>
      </trkpt>
      <trkpt lat="48.72495" lon="7.03405">
        <ele>247.8</ele>
        <time>2024-02-01T16:38:05Z</time>
      </trkpt>
      <trkpt lat="48.7249" lon="7.03375">
        <ele>247.9</ele>
        <time>2024-02-01T16:38:12Z</time>
      </trkpt>
      <trkpt lat="48.72484" lon="7.03345">
        <ele>247.9</ele>
        <time>2024-02-01T16:38:19Z</time>
      </trkpt>
      <trkpt lat="48.72473" lon="7.03323">
        <ele>247.9</ele>
        <time>2024-02-01T16:38:26Z</time>
      </trkpt>
      <trkpt lat="48.7246" lon="7.03305">
        <ele>248</ele>
        <time>2024-02-01T16:38:33Z</time>
      </trkpt>
      <trkpt lat="48.72457" lon="7.03276">
        <ele>248</ele>
        <time>2024-02-01T16:38:41Z</time>
      </trkpt>
      <trkpt lat="48.72463" lon="7.03249">
        <ele>248.1</ele>
        <time>2024-02-01T16:38:49Z</time>
      </trkpt>
      <trkpt lat="48.72465" lon="7.0322">
        <ele>248</ele>
        <time>2024-02-01T16:38:56Z</time>
      </trkpt>
      <trkpt lat="48.72461" lon="7.0319">
        <ele>247.8</ele>
        <time>2024-02-01T16:39:03Z</time>
      </trkpt>
      <trkpt lat="48.72466" lon="7.03163">
        <ele>247.7</ele>
        <time>2024-02-01T16:39:10Z</time>
      </trkpt>
      <trkpt lat="48.72465" lon="7.03134">
        <ele>247.6</ele>
        <time>2024-02-01T16:39:17Z</time>
      </trkpt>
      <trkpt lat="48.72458" lon="7.03106">
        <ele>247.5</ele>
        <time>2024-02-01T16:39:24Z</time>
      </trkpt>
      <trkpt lat="48.72452" lon="7.03078">
        <ele>247.6</ele>
        <time>2024-02-01T16:39:31Z</time>
      </trkpt>
      <trkpt lat="48.72449" lon="7.03049">
        <ele>247.8</ele>
        <time>2024-02-01T16:39:39Z</time>
      </trkpt>
      <trkpt lat="48.72454" lon="7.03023">
        <ele>248.1</ele>
        <time>2024-02-01T16:39:48Z</time>
      </trkpt>
      <trkpt lat="48.7247" lon="7.03006">
        <ele>248.4</ele>
        <time>2024-02-01T16:39:54Z</time>
      </trkpt>
      <trkpt lat="48.72486" lon="7.02993">
        <ele>248.7</ele>
        <time>2024-02-01T16:40:01Z</time>
      </trkpt>
      <trkpt lat="48.72503" lon="7.0298">
        <ele>248.8</ele>
        <time>2024-02-01T16:40:07Z</time>
      </trkpt>
      <trkpt lat="48.7252" lon="7.0297">
        <ele>248.7</ele>
        <time>2024-02-01T16:40:14Z</time>
      </trkpt>
      <trkpt lat="48.72537" lon="7.0296">
        <ele>248.6</ele>
        <time>2024-02-01T16:40:20Z</time>
      </trkpt>
      <trkpt lat="48.72547" lon="7.02955">
        <ele>248.5</ele>
        <time>2024-02-01T16:40:24Z</time>
      </trkpt>
      <trkpt lat="48.72568" lon="7.02962">
        <ele>248.4</ele>
        <time>2024-02-01T16:40:30Z</time>
      </trkpt>
      <trkpt lat="48.72585" lon="7.02951">
        <ele>248.1</ele>
        <time>2024-02-01T16:40:36Z</time>
      </trkpt>
      <trkpt lat="48.72603" lon="7.02938">
        <ele>248</ele>
        <time>2024-02-01T16:40:43Z</time>
      </trkpt>
      <trkpt lat="48.7262" lon="7.02923">
        <ele>248.3</ele>
        <time>2024-02-01T16:40:50Z</time>
      </trkpt>
      <trkpt lat="48.72636" lon="7.02909">
        <ele>248.6</ele>
        <time>2024-02-01T16:40:57Z</time>
      </trkpt>
      <trkpt lat="48.72654" lon="7.02893">
        <ele>248.7</ele>
        <time>2024-02-01T16:41:04Z</time>
      </trkpt>
      <trkpt lat="48.72663" lon="7.02891">
        <ele>248.6</ele>
        <time>2024-02-01T16:41:08Z</time>
      </trkpt>
      <trkpt lat="48.72676" lon="7.02914">
        <ele>248.4</ele>
        <time>2024-02-01T16:41:15Z</time>
      </trkpt>
      <trkpt lat="48.72684" lon="7.02942">
        <ele>248.2</ele>
        <time>2024-02-01T16:41:22Z</time>
      </trkpt>
      <trkpt lat="48.72691" lon="7.02969">
        <ele>248.1</ele>
        <time>2024-02-01T16:41:28Z</time>
      </trkpt>
      <trkpt lat="48.72698" lon="7.02998">
        <ele>248</ele>
        <time>2024-02-01T16:41:35Z</time>
      </trkpt>
      <trkpt lat="48.72708" lon="7.03026">
        <ele>248</ele>
        <time>2024-02-01T16:41:42Z</time>
      </trkpt>
      <trkpt lat="48.72714" lon="7.03052">
        <ele>248</ele>
        <time>2024-02-01T16:41:48Z</time>
      </trkpt>
      <trkpt lat="48.72722" lon="7.0308">
        <ele>248</ele>
        <time>2024-02-01T16:41:55Z</time>
      </trkpt>
      <trkpt lat="48.72728" lon="7.03107">
        <ele>248.1</ele>
        <time>2024-02-01T16:42:01Z</time>
      </trkpt>
      <trkpt lat="48.72732" lon="7.03133">
        <ele>248.2</ele>
        <time>2024-02-01T16:42:07Z</time>
      </trkpt>
      <trkpt lat="48.72732" lon="7.03163">
        <ele>248.2</ele>
        <time>2024-02-01T16:42:14Z</time>
      </trkpt>
      <trkpt lat="48.72722" lon="7.03189">
        <ele>248.2</ele>
        <time>2024-02-01T16:42:21Z</time>
      </trkpt>
      <trkpt lat="48.72707" lon="7.03207">
        <ele>248.2</ele>
        <time>2024-02-01T16:42:27Z</time>
      </trkpt>
      <trkpt lat="48.72691" lon="7.03221">
        <ele>248.1</ele>
        <time>2024-02-01T16:42:33Z</time>
      </trkpt>
      <trkpt lat="48.72676" lon="7.03236">
        <ele>248</ele>
        <time>2024-02-01T16:42:39Z</time>
      </trkpt>
      <trkpt lat="48.7267" lon="7.03263">
        <ele>247.9</ele>
        <time>2024-02-01T16:42:46Z</time>
      </trkpt>
      <trkpt lat="48.72676" lon="7.03291">
        <ele>248</ele>
        <time>2024-02-01T16:42:53Z</time>
      </trkpt>
      <trkpt lat="48.72683" lon="7.03319">
        <ele>248</ele>
        <time>2024-02-01T16:43:00Z</time>
      </trkpt>
      <trkpt lat="48.72693" lon="7.03346">
        <ele>248</ele>
        <time>2024-02-01T16:43:07Z</time>
      </trkpt>
      <trkpt lat="48.72701" lon="7.03373">
        <ele>248</ele>
        <time>2024-02-01T16:43:14Z</time>
      </trkpt>
      <trkpt lat="48.72707" lon="7.03399">
        <ele>248</ele>
        <time>2024-02-01T16:43:20Z</time>
      </trkpt>
      <trkpt lat="48.72712" lon="7.03428">
        <ele>247.9</ele>
        <time>2024-02-01T16:43:27Z</time>
      </trkpt>
      <trkpt lat="48.72721" lon="7.03455">
        <ele>247.9</ele>
        <time>2024-02-01T16:43:34Z</time>
      </trkpt>
      <trkpt lat="48.72733" lon="7.03479">
        <ele>247.9</ele>
        <time>2024-02-01T16:43:41Z</time>
      </trkpt>
      <trkpt lat="48.72748" lon="7.035">
        <ele>247.8</ele>
        <time>2024-02-01T16:43:48Z</time>
      </trkpt>
      <trkpt lat="48.72764" lon="7.03521">
        <ele>247.7</ele>
        <time>2024-02-01T16:43:55Z</time>
      </trkpt>
      <trkpt lat="48.72777" lon="7.03541">
        <ele>247.7</ele>
        <time>2024-02-01T16:44:01Z</time>
      </trkpt>
      <trkpt lat="48.72789" lon="7.03564">
        <ele>247.7</ele>
        <time>2024-02-01T16:44:08Z</time>
      </trkpt>
      <trkpt lat="48.72796" lon="7.03591">
        <ele>247.9</ele>
        <time>2024-02-01T16:44:15Z</time>
      </trkpt>
      <trkpt lat="48.72802" lon="7.03619">
        <ele>247.9</ele>
        <time>2024-02-01T16:44:22Z</time>
      </trkpt>
      <trkpt lat="48.72809" lon="7.03646">
        <ele>248</ele>
        <time>2024-02-01T16:44:29Z</time>
      </trkpt>
      <trkpt lat="48.72815" lon="7.03672">
        <ele>248</ele>
        <time>2024-02-01T16:44:35Z</time>
      </trkpt>
      <trkpt lat="48.72823" lon="7.03697">
        <ele>248</ele>
        <time>2024-02-01T16:44:41Z</time>
      </trkpt>
      <trkpt lat="48.72827" lon="7.03724">
        <ele>247.9</ele>
        <time>2024-02-01T16:44:48Z</time>
      </trkpt>
      <trkpt lat="48.72818" lon="7.03748">
        <ele>247.8</ele>
        <time>2024-02-01T16:44:55Z</time>
      </trkpt>
      <trkpt lat="48.72805" lon="7.0377">
        <ele>247.5</ele>
        <time>2024-02-01T16:45:02Z</time>
      </trkpt>
      <trkpt lat="48.72794" lon="7.03794">
        <ele>247.3</ele>
        <time>2024-02-01T16:45:08Z</time>
      </trkpt>
      <trkpt lat="48.72788" lon="7.03825">
        <ele>247.2</ele>
        <time>2024-02-01T16:45:15Z</time>
      </trkpt>
      <trkpt lat="48.7279" lon="7.03855">
        <ele>247</ele>
        <time>2024-02-01T16:45:22Z</time>
      </trkpt>
      <trkpt lat="48.72801" lon="7.0388">
        <ele>247</ele>
        <time>2024-02-01T16:45:29Z</time>
      </trkpt>
      <trkpt lat="48.72817" lon="7.039">
        <ele>247</ele>
        <time>2024-02-01T16:45:36Z</time>
      </trkpt>
      <trkpt lat="48.72832" lon="7.0392">
        <ele>247</ele>
        <time>2024-02-01T16:45:43Z</time>
      </trkpt>
      <trkpt lat="48.72843" lon="7.03946">
        <ele>247</ele>
        <time>2024-02-01T16:45:50Z</time>
      </trkpt>
      <trkpt lat="48.72842" lon="7.03976">
        <ele>247.4</ele>
        <time>2024-02-01T16:45:57Z</time>
      </trkpt>
      <trkpt lat="48.72849" lon="7.04001">
        <ele>247.5</ele>
        <time>2024-02-01T16:46:05Z</time>
      </trkpt>
      <trkpt lat="48.72866" lon="7.04018">
        <ele>247.4</ele>
        <time>2024-02-01T16:46:12Z</time>
      </trkpt>
      <trkpt lat="48.72874" lon="7.04043">
        <ele>247.2</ele>
        <time>2024-02-01T16:46:18Z</time>
      </trkpt>
      <trkpt lat="48.72874" lon="7.04073">
        <ele>247</ele>
        <time>2024-02-01T16:46:24Z</time>
      </trkpt>
      <trkpt lat="48.72862" lon="7.04094">
        <ele>247</ele>
        <time>2024-02-01T16:46:30Z</time>
      </trkpt>
      <trkpt lat="48.72844" lon="7.04109">
        <ele>247.2</ele>
        <time>2024-02-01T16:46:36Z</time>
      </trkpt>
      <trkpt lat="48.72834" lon="7.04135">
        <ele>247.8</ele>
        <time>2024-02-01T16:46:43Z</time>
      </trkpt>
      <trkpt lat="48.72832" lon="7.04163">
        <ele>248.8</ele>
        <time>2024-02-01T16:46:50Z</time>
      </trkpt>
      <trkpt lat="48.7283" lon="7.04193">
        <ele>249.9</ele>
        <time>2024-02-01T16:46:57Z</time>
      </trkpt>
      <trkpt lat="48.72827" lon="7.04218">
        <ele>250.3</ele>
        <time>2024-02-01T16:47:04Z</time>
      </trkpt>
      <trkpt lat="48.72837" lon="7.04245">
        <ele>250.3</ele>
        <time>2024-02-01T16:47:12Z</time>
      </trkpt>
      <trkpt lat="48.7285" lon="7.04263">
        <ele>250.2</ele>
        <time>2024-02-01T16:47:19Z</time>
      </trkpt>
      <trkpt lat="48.72856" lon="7.04275">
        <ele>250.2</ele>
        <time>2024-02-01T16:47:23Z</time>
      </trkpt>
      <trkpt lat="48.72844" lon="7.043">
        <ele>250.2</ele>
        <time>2024-02-01T16:47:30Z</time>
      </trkpt>
      <trkpt lat="48.7283" lon="7.0432">
        <ele>250.3</ele>
        <time>2024-02-01T16:47:36Z</time>
      </trkpt>
      <trkpt lat="48.72817" lon="7.04339">
        <ele>250.3</ele>
        <time>2024-02-01T16:47:42Z</time>
      </trkpt>
      <trkpt lat="48.72804" lon="7.0436">
        <ele>250.4</ele>
        <time>2024-02-01T16:47:48Z</time>
      </trkpt>
      <trkpt lat="48.728" lon="7.04388">
        <ele>250.8</ele>
        <time>2024-02-01T16:47:55Z</time>
      </trkpt>
      <trkpt lat="48.72802" lon="7.04418">
        <ele>251.4</ele>
        <time>2024-02-01T16:48:03Z</time>
      </trkpt>
      <trkpt lat="48.728" lon="7.04447">
        <ele>251.7</ele>
        <time>2024-02-01T16:48:10Z</time>
      </trkpt>
      <trkpt lat="48.72794" lon="7.04475">
        <ele>251.9</ele>
        <time>2024-02-01T16:48:18Z</time>
      </trkpt>
      <trkpt lat="48.72783" lon="7.04499">
        <ele>252.2</ele>
        <time>2024-02-01T16:48:25Z</time>
      </trkpt>
      <trkpt lat="48.72771" lon="7.04524">
        <ele>252.5</ele>
        <time>2024-02-01T16:48:32Z</time>
      </trkpt>
      <trkpt lat="48.72761" lon="7.0454">
        <ele>252.7</ele>
        <time>2024-02-01T16:48:42Z</time>
      </trkpt>
      <trkpt lat="48.72766" lon="7.04541">
        <ele>252.4</ele>
        <time>2024-02-01T16:48:46Z</time>
      </trkpt>
      <trkpt lat="48.72769" lon="7.04549">
        <ele>252.4</ele>
        <time>2024-02-01T16:48:50Z</time>
      </trkpt>
      <trkpt lat="48.72762" lon="7.04558">
        <ele>252.5</ele>
        <time>2024-02-01T16:48:58Z</time>
      </trkpt>
      <trkpt lat="48.72773" lon="7.04533">
        <ele>252.5</ele>
        <time>2024-02-01T16:49:05Z</time>
      </trkpt>
      <trkpt lat="48.72784" lon="7.04508">
        <ele>252.5</ele>
        <time>2024-02-01T16:49:11Z</time>
      </trkpt>
      <trkpt lat="48.72797" lon="7.04485">
        <ele>252.5</ele>
        <time>2024-02-01T16:49:18Z</time>
      </trkpt>
      <trkpt lat="48.72815" lon="7.04473">
        <ele>252.6</ele>
        <time>2024-02-01T16:49:25Z</time>
      </trkpt>
      <trkpt lat="48.72835" lon="7.04483">
        <ele>252.6</ele>
        <time>2024-02-01T16:49:32Z</time>
      </trkpt>
      <trkpt lat="48.7285" lon="7.04502">
        <ele>252.8</ele>
        <time>2024-02-01T16:49:38Z</time>
      </trkpt>
      <trkpt lat="48.7286" lon="7.04529">
        <ele>252.9</ele>
        <time>2024-02-01T16:49:45Z</time>
      </trkpt>
      <trkpt lat="48.72857" lon="7.04556">
        <ele>253</ele>
        <time>2024-02-01T16:49:51Z</time>
      </trkpt>
      <trkpt lat="48.72847" lon="7.0458">
        <ele>253</ele>
        <time>2024-02-01T16:49:57Z</time>
      </trkpt>
      <trkpt lat="48.72837" lon="7.04603">
        <ele>252.9</ele>
        <time>2024-02-01T16:50:03Z</time>
      </trkpt>
      <trkpt lat="48.72826" lon="7.04627">
        <ele>252.8</ele>
        <time>2024-02-01T16:50:09Z</time>
      </trkpt>
      <trkpt lat="48.72814" lon="7.04651">
        <ele>252.7</ele>
        <time>2024-02-01T16:50:15Z</time>
      </trkpt>
      <trkpt lat="48.72801" lon="7.04674">
        <ele>252.6</ele>
        <time>2024-02-01T16:50:21Z</time>
      </trkpt>
      <trkpt lat="48.72783" lon="7.04684">
        <ele>252.5</ele>
        <time>2024-02-01T16:50:27Z</time>
      </trkpt>
      <trkpt lat="48.72765" lon="7.04673">
        <ele>252.5</ele>
        <time>2024-02-01T16:50:33Z</time>
      </trkpt>
      <trkpt lat="48.72749" lon="7.04652">
        <ele>252.5</ele>
        <time>2024-02-01T16:50:39Z</time>
      </trkpt>
      <trkpt lat="48.72738" lon="7.04627">
        <ele>252.4</ele>
        <time>2024-02-01T16:50:45Z</time>
      </trkpt>
      <trkpt lat="48.7274" lon="7.04596">
        <ele>252.3</ele>
        <time>2024-02-01T16:50:51Z</time>
      </trkpt>
      <trkpt lat="48.7275" lon="7.04569">
        <ele>252.4</ele>
        <time>2024-02-01T16:50:57Z</time>
      </trkpt>
      <trkpt lat="48.72759" lon="7.04549">
        <ele>252.4</ele>
        <time>2024-02-01T16:51:08Z</time>
      </trkpt>
      <trkpt lat="48.72758" lon="7.04553">
        <ele>252.4</ele>
        <time>2024-02-01T16:51:10Z</time>
      </trkpt>
      <trkpt lat="48.72758" lon="7.04556">
        <ele>252.4</ele>
        <time>2024-02-01T16:51:12Z</time>
      </trkpt>
      <trkpt lat="48.72747" lon="7.04579">
        <ele>252.4</ele>
        <time>2024-02-01T16:51:26Z</time>
      </trkpt>
      <trkpt lat="48.7274" lon="7.04596">
        <ele>252.4</ele>
        <time>2024-02-01T16:51:37Z</time>
      </trkpt>
      <trkpt lat="48.72751" lon="7.04572">
        <ele>252.4</ele>
        <time>2024-02-01T16:51:48Z</time>
      </trkpt>
      <trkpt lat="48.72761" lon="7.04549">
        <ele>252.5</ele>
        <time>2024-02-01T16:51:58Z</time>
      </trkpt>
      <trkpt lat="48.72772" lon="7.04523">
        <ele>252.5</ele>
        <time>2024-02-01T16:52:07Z</time>
      </trkpt>
      <trkpt lat="48.72782" lon="7.045">
        <ele>252.5</ele>
        <time>2024-02-01T16:52:14Z</time>
      </trkpt>
      <trkpt lat="48.72795" lon="7.04479">
        <ele>252.5</ele>
        <time>2024-02-01T16:52:23Z</time>
      </trkpt>
      <trkpt lat="48.72795" lon="7.04479">
        <ele>252.5</ele>
        <time>2024-02-01T16:52:24Z</time>
      </trkpt>
      <trkpt lat="48.72791" lon="7.0449">
        <ele>252.5</ele>
        <time>2024-02-01T16:52:29Z</time>
      </trkpt>
      <trkpt lat="48.72784" lon="7.04506">
        <ele>252.5</ele>
        <time>2024-02-01T16:52:34Z</time>
      </trkpt>
      <trkpt lat="48.72774" lon="7.04528">
        <ele>252.5</ele>
        <time>2024-02-01T16:52:40Z</time>
      </trkpt>
      <trkpt lat="48.72762" lon="7.04551">
        <ele>252.4</ele>
        <time>2024-02-01T16:52:46Z</time>
      </trkpt>
      <trkpt lat="48.72751" lon="7.04574">
        <ele>252.4</ele>
        <time>2024-02-01T16:52:54Z</time>
      </trkpt>
      <trkpt lat="48.72741" lon="7.04599">
        <ele>252.3</ele>
        <time>2024-02-01T16:53:04Z</time>
      </trkpt>
      <trkpt lat="48.72742" lon="7.046">
        <ele>252.3</ele>
        <time>2024-02-01T16:53:07Z</time>
      </trkpt>
      <trkpt lat="48.72743" lon="7.04595">
        <ele>252.3</ele>
        <time>2024-02-01T16:53:10Z</time>
      </trkpt>
      <trkpt lat="48.72753" lon="7.04572">
        <ele>252.4</ele>
        <time>2024-02-01T16:53:18Z</time>
      </trkpt>
      <trkpt lat="48.72764" lon="7.04547">
        <ele>252.4</ele>
        <time>2024-02-01T16:53:25Z</time>
      </trkpt>
      <trkpt lat="48.72775" lon="7.04524">
        <ele>252.5</ele>
        <time>2024-02-01T16:53:32Z</time>
      </trkpt>
      <trkpt lat="48.72786" lon="7.04501">
        <ele>252.5</ele>
        <time>2024-02-01T16:53:39Z</time>
      </trkpt>
      <trkpt lat="48.72791" lon="7.04487">
        <ele>252.5</ele>
        <time>2024-02-01T16:53:50Z</time>
      </trkpt>
      <trkpt lat="48.72802" lon="7.04464">
        <ele>252.5</ele>
        <time>2024-02-01T16:54:03Z</time>
      </trkpt>
      <trkpt lat="48.72804" lon="7.04461">
        <ele>252.5</ele>
        <time>2024-02-01T16:54:07Z</time>
      </trkpt>
      <trkpt lat="48.728" lon="7.04468">
        <ele>252.5</ele>
        <time>2024-02-01T16:54:13Z</time>
      </trkpt>
      <trkpt lat="48.7279" lon="7.04491">
        <ele>252.5</ele>
        <time>2024-02-01T16:54:23Z</time>
      </trkpt>
      <trkpt lat="48.72779" lon="7.04516">
        <ele>252.5</ele>
        <time>2024-02-01T16:54:32Z</time>
      </trkpt>
      <trkpt lat="48.72769" lon="7.04539">
        <ele>252.4</ele>
        <time>2024-02-01T16:54:39Z</time>
      </trkpt>
      <trkpt lat="48.72757" lon="7.04564">
        <ele>252.4</ele>
        <time>2024-02-01T16:54:46Z</time>
      </trkpt>
      <trkpt lat="48.72746" lon="7.04588">
        <ele>252.4</ele>
        <time>2024-02-01T16:54:53Z</time>
      </trkpt>
      <trkpt lat="48.72742" lon="7.04595">
        <ele>252.3</ele>
        <time>2024-02-01T16:54:59Z</time>
      </trkpt>
      <trkpt lat="48.72743" lon="7.0459">
        <ele>252.3</ele>
        <time>2024-02-01T16:55:01Z</time>
      </trkpt>
      <trkpt lat="48.72753" lon="7.04567">
        <ele>252.4</ele>
        <time>2024-02-01T16:55:06Z</time>
      </trkpt>
      <trkpt lat="48.72765" lon="7.04541">
        <ele>252.4</ele>
        <time>2024-02-01T16:55:10Z</time>
      </trkpt>
      <trkpt lat="48.72779" lon="7.0451">
        <ele>252.5</ele>
        <time>2024-02-01T16:55:14Z</time>
      </trkpt>
      <trkpt lat="48.7279" lon="7.04487">
        <ele>252.5</ele>
        <time>2024-02-01T16:55:17Z</time>
      </trkpt>
      <trkpt lat="48.72802" lon="7.04462">
        <ele>252.5</ele>
        <time>2024-02-01T16:55:21Z</time>
      </trkpt>
      <trkpt lat="48.72804" lon="7.04453">
        <ele>252.5</ele>
        <time>2024-02-01T16:55:27Z</time>
      </trkpt>
      <trkpt lat="48.72803" lon="7.04457">
        <ele>252.5</ele>
        <time>2024-02-01T16:55:29Z</time>
      </trkpt>
      <trkpt lat="48.72792" lon="7.04485">
        <ele>252.5</ele>
        <time>2024-02-01T16:55:38Z</time>
      </trkpt>
      <trkpt lat="48.72782" lon="7.04508">
        <ele>252.5</ele>
        <time>2024-02-01T16:55:42Z</time>
      </trkpt>
      <trkpt lat="48.72771" lon="7.04534">
        <ele>252.5</ele>
        <time>2024-02-01T16:55:46Z</time>
      </trkpt>
      <trkpt lat="48.72758" lon="7.04563">
        <ele>252.4</ele>
        <time>2024-02-01T16:55:50Z</time>
      </trkpt>
      <trkpt lat="48.72746" lon="7.04588">
        <ele>252.3</ele>
        <time>2024-02-01T16:55:54Z</time>
      </trkpt>
      <trkpt lat="48.72733" lon="7.04612">
        <ele>252.3</ele>
        <time>2024-02-01T16:56:00Z</time>
      </trkpt>
      <trkpt lat="48.72732" lon="7.04614">
        <ele>252.3</ele>
        <time>2024-02-01T16:56:01Z</time>
      </trkpt>
      <trkpt lat="48.72734" lon="7.04607">
        <ele>252.3</ele>
        <time>2024-02-01T16:56:25Z</time>
      </trkpt>
      <trkpt lat="48.72745" lon="7.04584">
        <ele>252.3</ele>
        <time>2024-02-01T16:56:31Z</time>
      </trkpt>
      <trkpt lat="48.72757" lon="7.04562">
        <ele>252.3</ele>
        <time>2024-02-01T16:56:37Z</time>
      </trkpt>
      <trkpt lat="48.72768" lon="7.04546">
        <ele>252.4</ele>
        <time>2024-02-01T16:56:48Z</time>
      </trkpt>
      <trkpt lat="48.72766" lon="7.04548">
        <ele>252.4</ele>
        <time>2024-02-01T16:56:50Z</time>
      </trkpt>
      <trkpt lat="48.72754" lon="7.04568">
        <ele>252.4</ele>
        <time>2024-02-01T16:56:57Z</time>
      </trkpt>
      <trkpt lat="48.72751" lon="7.04572">
        <ele>252.4</ele>
        <time>2024-02-01T16:56:59Z</time>
      </trkpt>
      <trkpt lat="48.72748" lon="7.04586">
        <ele>252.3</ele>
        <time>2024-02-01T16:58:42Z</time>
      </trkpt>
      <trkpt lat="48.72748" lon="7.04586">
        <ele>252.3</ele>
        <time>2024-02-01T16:58:43Z</time>
      </trkpt>
      <trkpt lat="48.72743" lon="7.04614">
        <ele>252.4</ele>
        <time>2024-02-01T16:58:48Z</time>
      </trkpt>
      <trkpt lat="48.72746" lon="7.04636">
        <ele>252.5</ele>
        <time>2024-02-01T16:58:51Z</time>
      </trkpt>
      <trkpt lat="48.72753" lon="7.04647">
        <ele>252.5</ele>
        <time>2024-02-01T16:58:53Z</time>
      </trkpt>
      <trkpt lat="48.72767" lon="7.04661">
        <ele>252.5</ele>
        <time>2024-02-01T16:58:56Z</time>
      </trkpt>
      <trkpt lat="48.72782" lon="7.04668">
        <ele>252.5</ele>
        <time>2024-02-01T16:58:59Z</time>
      </trkpt>
      <trkpt lat="48.72792" lon="7.04668">
        <ele>252.6</ele>
        <time>2024-02-01T16:59:01Z</time>
      </trkpt>
      <trkpt lat="48.72802" lon="7.04662">
        <ele>252.6</ele>
        <time>2024-02-01T16:59:03Z</time>
      </trkpt>
      <trkpt lat="48.72811" lon="7.04652">
        <ele>252.7</ele>
        <time>2024-02-01T16:59:05Z</time>
      </trkpt>
      <trkpt lat="48.72826" lon="7.04625">
        <ele>252.8</ele>
        <time>2024-02-01T16:59:09Z</time>
      </trkpt>
      <trkpt lat="48.72839" lon="7.04599">
        <ele>252.9</ele>
        <time>2024-02-01T16:59:13Z</time>
      </trkpt>
      <trkpt lat="48.72851" lon="7.04571">
        <ele>253</ele>
        <time>2024-02-01T16:59:17Z</time>
      </trkpt>
      <trkpt lat="48.72861" lon="7.04545">
        <ele>252.9</ele>
        <time>2024-02-01T16:59:21Z</time>
      </trkpt>
      <trkpt lat="48.72863" lon="7.04531">
        <ele>252.9</ele>
        <time>2024-02-01T16:59:23Z</time>
      </trkpt>
      <trkpt lat="48.72861" lon="7.04518">
        <ele>252.8</ele>
        <time>2024-02-01T16:59:25Z</time>
      </trkpt>
      <trkpt lat="48.72857" lon="7.04505">
        <ele>252.8</ele>
        <time>2024-02-01T16:59:27Z</time>
      </trkpt>
      <trkpt lat="48.7285" lon="7.04494">
        <ele>252.7</ele>
        <time>2024-02-01T16:59:29Z</time>
      </trkpt>
      <trkpt lat="48.72842" lon="7.04485">
        <ele>252.6</ele>
        <time>2024-02-01T16:59:31Z</time>
      </trkpt>
      <trkpt lat="48.72832" lon="7.0448">
        <ele>252.6</ele>
        <time>2024-02-01T16:59:33Z</time>
      </trkpt>
      <trkpt lat="48.72821" lon="7.04477">
        <ele>252.6</ele>
        <time>2024-02-01T16:59:35Z</time>
      </trkpt>
      <trkpt lat="48.72812" lon="7.04479">
        <ele>252.5</ele>
        <time>2024-02-01T16:59:37Z</time>
      </trkpt>
      <trkpt lat="48.72802" lon="7.04484">
        <ele>252.5</ele>
        <time>2024-02-01T16:59:39Z</time>
      </trkpt>
      <trkpt lat="48.72794" lon="7.04494">
        <ele>252.5</ele>
        <time>2024-02-01T16:59:41Z</time>
      </trkpt>
      <trkpt lat="48.72782" lon="7.0452">
        <ele>252.5</ele>
        <time>2024-02-01T16:59:45Z</time>
      </trkpt>
      <trkpt lat="48.72771" lon="7.04546">
        <ele>252.4</ele>
        <time>2024-02-01T16:59:49Z</time>
      </trkpt>
      <trkpt lat="48.72759" lon="7.0457">
        <ele>252.4</ele>
        <time>2024-02-01T16:59:53Z</time>
      </trkpt>
      <trkpt lat="48.72747" lon="7.04593">
        <ele>252.3</ele>
        <time>2024-02-01T16:59:57Z</time>
      </trkpt>
      <trkpt lat="48.72745" lon="7.04599">
        <ele>252.3</ele>
        <time>2024-02-01T16:59:58Z</time>
      </trkpt>
      <trkpt lat="48.72743" lon="7.04612">
        <ele>252.4</ele>
        <time>2024-02-01T17:00:00Z</time>
      </trkpt>
      <trkpt lat="48.72743" lon="7.04626">
        <ele>252.4</ele>
        <time>2024-02-01T17:00:02Z</time>
      </trkpt>
      <trkpt lat="48.72747" lon="7.04639">
        <ele>252.5</ele>
        <time>2024-02-01T17:00:04Z</time>
      </trkpt>
      <trkpt lat="48.72757" lon="7.04655">
        <ele>252.5</ele>
        <time>2024-02-01T17:00:07Z</time>
      </trkpt>
      <trkpt lat="48.72769" lon="7.04666">
        <ele>252.5</ele>
        <time>2024-02-01T17:00:10Z</time>
      </trkpt>
      <trkpt lat="48.72788" lon="7.04671">
        <ele>252.6</ele>
        <time>2024-02-01T17:00:14Z</time>
      </trkpt>
      <trkpt lat="48.72798" lon="7.04667">
        <ele>252.6</ele>
        <time>2024-02-01T17:00:16Z</time>
      </trkpt>
      <trkpt lat="48.72807" lon="7.04658">
        <ele>252.7</ele>
        <time>2024-02-01T17:00:18Z</time>
      </trkpt>
      <trkpt lat="48.72815" lon="7.04647">
        <ele>252.7</ele>
        <time>2024-02-01T17:00:20Z</time>
      </trkpt>
      <trkpt lat="48.72827" lon="7.04622">
        <ele>252.8</ele>
        <time>2024-02-01T17:00:24Z</time>
      </trkpt>
      <trkpt lat="48.72839" lon="7.04595">
        <ele>252.9</ele>
        <time>2024-02-01T17:00:28Z</time>
      </trkpt>
      <trkpt lat="48.7285" lon="7.0457">
        <ele>253</ele>
        <time>2024-02-01T17:00:32Z</time>
      </trkpt>
      <trkpt lat="48.72859" lon="7.04545">
        <ele>252.9</ele>
        <time>2024-02-01T17:00:36Z</time>
      </trkpt>
      <trkpt lat="48.72861" lon="7.04538">
        <ele>252.9</ele>
        <time>2024-02-01T17:00:37Z</time>
      </trkpt>
      <trkpt lat="48.72862" lon="7.04524">
        <ele>252.9</ele>
        <time>2024-02-01T17:00:39Z</time>
      </trkpt>
      <trkpt lat="48.72859" lon="7.04512">
        <ele>252.8</ele>
        <time>2024-02-01T17:00:41Z</time>
      </trkpt>
      <trkpt lat="48.72854" lon="7.045">
        <ele>252.7</ele>
        <time>2024-02-01T17:00:43Z</time>
      </trkpt>
      <trkpt lat="48.72843" lon="7.04486">
        <ele>252.6</ele>
        <time>2024-02-01T17:00:46Z</time>
      </trkpt>
      <trkpt lat="48.72832" lon="7.0448">
        <ele>252.6</ele>
        <time>2024-02-01T17:00:48Z</time>
      </trkpt>
      <trkpt lat="48.72822" lon="7.04477">
        <ele>252.6</ele>
        <time>2024-02-01T17:00:50Z</time>
      </trkpt>
      <trkpt lat="48.72812" lon="7.04477">
        <ele>252.6</ele>
        <time>2024-02-01T17:00:52Z</time>
      </trkpt>
      <trkpt lat="48.72803" lon="7.0448">
        <ele>252.5</ele>
        <time>2024-02-01T17:00:54Z</time>
      </trkpt>
      <trkpt lat="48.72796" lon="7.04489">
        <ele>252.5</ele>
        <time>2024-02-01T17:00:56Z</time>
      </trkpt>
      <trkpt lat="48.72784" lon="7.04513">
        <ele>252.5</ele>
        <time>2024-02-01T17:01:00Z</time>
      </trkpt>
      <trkpt lat="48.72773" lon="7.04538">
        <ele>252.5</ele>
        <time>2024-02-01T17:01:04Z</time>
      </trkpt>
      <trkpt lat="48.72763" lon="7.04562">
        <ele>252.4</ele>
        <time>2024-02-01T17:01:08Z</time>
      </trkpt>
      <trkpt lat="48.72752" lon="7.04588">
        <ele>252.4</ele>
        <time>2024-02-01T17:01:12Z</time>
      </trkpt>
      <trkpt lat="48.72745" lon="7.04607">
        <ele>252.3</ele>
        <time>2024-02-01T17:01:15Z</time>
      </trkpt>
      <trkpt lat="48.72743" lon="7.04621">
        <ele>252.3</ele>
        <time>2024-02-01T17:01:17Z</time>
      </trkpt>
      <trkpt lat="48.72745" lon="7.04634">
        <ele>252.4</ele>
        <time>2024-02-01T17:01:19Z</time>
      </trkpt>
      <trkpt lat="48.72749" lon="7.04644">
        <ele>252.5</ele>
        <time>2024-02-01T17:01:21Z</time>
      </trkpt>
      <trkpt lat="48.7276" lon="7.04658">
        <ele>252.5</ele>
        <time>2024-02-01T17:01:24Z</time>
      </trkpt>
      <trkpt lat="48.72768" lon="7.04665">
        <ele>252.5</ele>
        <time>2024-02-01T17:01:26Z</time>
      </trkpt>
      <trkpt lat="48.72783" lon="7.04671">
        <ele>252.5</ele>
        <time>2024-02-01T17:01:29Z</time>
      </trkpt>
      <trkpt lat="48.72792" lon="7.0467">
        <ele>252.6</ele>
        <time>2024-02-01T17:01:31Z</time>
      </trkpt>
      <trkpt lat="48.72801" lon="7.04664">
        <ele>252.6</ele>
        <time>2024-02-01T17:01:33Z</time>
      </trkpt>
      <trkpt lat="48.7281" lon="7.04654">
        <ele>252.7</ele>
        <time>2024-02-01T17:01:35Z</time>
      </trkpt>
      <trkpt lat="48.72823" lon="7.04628">
        <ele>252.8</ele>
        <time>2024-02-01T17:01:39Z</time>
      </trkpt>
      <trkpt lat="48.72835" lon="7.04602">
        <ele>252.9</ele>
        <time>2024-02-01T17:01:43Z</time>
      </trkpt>
      <trkpt lat="48.72847" lon="7.04576">
        <ele>253</ele>
        <time>2024-02-01T17:01:47Z</time>
      </trkpt>
      <trkpt lat="48.72854" lon="7.04556">
        <ele>253</ele>
        <time>2024-02-01T17:01:50Z</time>
      </trkpt>
      <trkpt lat="48.7286" lon="7.0454">
        <ele>253</ele>
        <time>2024-02-01T17:01:53Z</time>
      </trkpt>
      <trkpt lat="48.72865" lon="7.04526">
        <ele>252.9</ele>
        <time>2024-02-01T17:01:58Z</time>
      </trkpt>
      <trkpt lat="48.72863" lon="7.04534">
        <ele>252.9</ele>
        <time>2024-02-01T17:02:02Z</time>
      </trkpt>
      <trkpt lat="48.72857" lon="7.0456">
        <ele>253</ele>
        <time>2024-02-01T17:02:11Z</time>
      </trkpt>
      <trkpt lat="48.72845" lon="7.04582">
        <ele>253</ele>
        <time>2024-02-01T17:02:21Z</time>
      </trkpt>
      <trkpt lat="48.72834" lon="7.04608">
        <ele>252.9</ele>
        <time>2024-02-01T17:02:31Z</time>
      </trkpt>
      <trkpt lat="48.72824" lon="7.04631">
        <ele>252.8</ele>
        <time>2024-02-01T17:02:38Z</time>
      </trkpt>
      <trkpt lat="48.72814" lon="7.04654">
        <ele>252.7</ele>
        <time>2024-02-01T17:02:45Z</time>
      </trkpt>
      <trkpt lat="48.72801" lon="7.04675">
        <ele>252.6</ele>
        <time>2024-02-01T17:02:52Z</time>
      </trkpt>
      <trkpt lat="48.72783" lon="7.0468">
        <ele>252.5</ele>
        <time>2024-02-01T17:02:59Z</time>
      </trkpt>
      <trkpt lat="48.72765" lon="7.0467">
        <ele>252.5</ele>
        <time>2024-02-01T17:03:05Z</time>
      </trkpt>
      <trkpt lat="48.72751" lon="7.04653">
        <ele>252.5</ele>
        <time>2024-02-01T17:03:11Z</time>
      </trkpt>
      <trkpt lat="48.72741" lon="7.04626">
        <ele>252.4</ele>
        <time>2024-02-01T17:03:18Z</time>
      </trkpt>
      <trkpt lat="48.72743" lon="7.04595">
        <ele>252.3</ele>
        <time>2024-02-01T17:03:25Z</time>
      </trkpt>
      <trkpt lat="48.7275" lon="7.0458">
        <ele>252.4</ele>
        <time>2024-02-01T17:03:33Z</time>
      </trkpt>
      <trkpt lat="48.72748" lon="7.04583">
        <ele>252.4</ele>
        <time>2024-02-01T17:03:38Z</time>
      </trkpt>
      <trkpt lat="48.72744" lon="7.04615">
        <ele>252.4</ele>
        <time>2024-02-01T17:03:43Z</time>
      </trkpt>
      <trkpt lat="48.72747" lon="7.04629">
        <ele>252.4</ele>
        <time>2024-02-01T17:03:45Z</time>
      </trkpt>
      <trkpt lat="48.72753" lon="7.04643">
        <ele>252.5</ele>
        <time>2024-02-01T17:03:47Z</time>
      </trkpt>
      <trkpt lat="48.72761" lon="7.04654">
        <ele>252.5</ele>
        <time>2024-02-01T17:03:49Z</time>
      </trkpt>
      <trkpt lat="48.72772" lon="7.04662">
        <ele>252.5</ele>
        <time>2024-02-01T17:03:51Z</time>
      </trkpt>
      <trkpt lat="48.72783" lon="7.04668">
        <ele>252.5</ele>
        <time>2024-02-01T17:03:53Z</time>
      </trkpt>
      <trkpt lat="48.72794" lon="7.04668">
        <ele>252.6</ele>
        <time>2024-02-01T17:03:55Z</time>
      </trkpt>
      <trkpt lat="48.72806" lon="7.04663">
        <ele>252.6</ele>
        <time>2024-02-01T17:03:57Z</time>
      </trkpt>
      <trkpt lat="48.72819" lon="7.04643">
        <ele>252.7</ele>
        <time>2024-02-01T17:04:00Z</time>
      </trkpt>
      <trkpt lat="48.72833" lon="7.04615">
        <ele>252.9</ele>
        <time>2024-02-01T17:04:04Z</time>
      </trkpt>
      <trkpt lat="48.72847" lon="7.04588">
        <ele>253</ele>
        <time>2024-02-01T17:04:08Z</time>
      </trkpt>
      <trkpt lat="48.72859" lon="7.04561">
        <ele>253</ele>
        <time>2024-02-01T17:04:12Z</time>
      </trkpt>
      <trkpt lat="48.72862" lon="7.04554">
        <ele>253</ele>
        <time>2024-02-01T17:04:13Z</time>
      </trkpt>
      <trkpt lat="48.72865" lon="7.04539">
        <ele>252.9</ele>
        <time>2024-02-01T17:04:15Z</time>
      </trkpt>
      <trkpt lat="48.72864" lon="7.04524">
        <ele>252.9</ele>
        <time>2024-02-01T17:04:17Z</time>
      </trkpt>
      <trkpt lat="48.7286" lon="7.04508">
        <ele>252.8</ele>
        <time>2024-02-01T17:04:19Z</time>
      </trkpt>
      <trkpt lat="48.72852" lon="7.04494">
        <ele>252.7</ele>
        <time>2024-02-01T17:04:21Z</time>
      </trkpt>
      <trkpt lat="48.72841" lon="7.04485">
        <ele>252.6</ele>
        <time>2024-02-01T17:04:23Z</time>
      </trkpt>
      <trkpt lat="48.7283" lon="7.04479">
        <ele>252.6</ele>
        <time>2024-02-01T17:04:25Z</time>
      </trkpt>
      <trkpt lat="48.72818" lon="7.04477">
        <ele>252.6</ele>
        <time>2024-02-01T17:04:27Z</time>
      </trkpt>
      <trkpt lat="48.72807" lon="7.0448">
        <ele>252.5</ele>
        <time>2024-02-01T17:04:29Z</time>
      </trkpt>
      <trkpt lat="48.72797" lon="7.04488">
        <ele>252.5</ele>
        <time>2024-02-01T17:04:31Z</time>
      </trkpt>
      <trkpt lat="48.7279" lon="7.045">
        <ele>252.5</ele>
        <time>2024-02-01T17:04:33Z</time>
      </trkpt>
      <trkpt lat="48.72778" lon="7.04527">
        <ele>252.5</ele>
        <time>2024-02-01T17:04:37Z</time>
      </trkpt>
      <trkpt lat="48.72767" lon="7.04554">
        <ele>252.4</ele>
        <time>2024-02-01T17:04:41Z</time>
      </trkpt>
      <trkpt lat="48.72755" lon="7.0458">
        <ele>252.4</ele>
        <time>2024-02-01T17:04:45Z</time>
      </trkpt>
      <trkpt lat="48.72751" lon="7.04585">
        <ele>252.4</ele>
        <time>2024-02-01T17:04:46Z</time>
      </trkpt>
      <trkpt lat="48.72739" lon="7.04609">
        <ele>252.3</ele>
        <time>2024-02-01T17:04:51Z</time>
      </trkpt>
      <trkpt lat="48.72735" lon="7.04611">
        <ele>252.3</ele>
        <time>2024-02-01T17:04:53Z</time>
      </trkpt>
      <trkpt lat="48.72742" lon="7.04587">
        <ele>252.3</ele>
        <time>2024-02-01T17:05:03Z</time>
      </trkpt>
      <trkpt lat="48.72751" lon="7.04566">
        <ele>252.4</ele>
        <time>2024-02-01T17:05:14Z</time>
      </trkpt>
      <trkpt lat="48.72762" lon="7.04545">
        <ele>252.4</ele>
        <time>2024-02-01T17:05:27Z</time>
      </trkpt>
      <trkpt lat="48.72773" lon="7.04521">
        <ele>252.5</ele>
        <time>2024-02-01T17:05:39Z</time>
      </trkpt>
      <trkpt lat="48.72784" lon="7.04499">
        <ele>252.5</ele>
        <time>2024-02-01T17:05:50Z</time>
      </trkpt>
      <trkpt lat="48.72795" lon="7.04477">
        <ele>252.5</ele>
        <time>2024-02-01T17:06:01Z</time>
      </trkpt>
      <trkpt lat="48.72803" lon="7.04465">
        <ele>252.5</ele>
        <time>2024-02-01T17:06:10Z</time>
      </trkpt>
      <trkpt lat="48.72802" lon="7.0447">
        <ele>252.5</ele>
        <time>2024-02-01T17:06:18Z</time>
      </trkpt>
      <trkpt lat="48.72789" lon="7.045">
        <ele>252.5</ele>
        <time>2024-02-01T17:06:23Z</time>
      </trkpt>
      <trkpt lat="48.72777" lon="7.04524">
        <ele>252.5</ele>
        <time>2024-02-01T17:06:26Z</time>
      </trkpt>
      <trkpt lat="48.72766" lon="7.04548">
        <ele>252.4</ele>
        <time>2024-02-01T17:06:29Z</time>
      </trkpt>
      <trkpt lat="48.72755" lon="7.04573">
        <ele>252.4</ele>
        <time>2024-02-01T17:06:32Z</time>
      </trkpt>
      <trkpt lat="48.72752" lon="7.04583">
        <ele>252.4</ele>
        <time>2024-02-01T17:06:33Z</time>
      </trkpt>
      <trkpt lat="48.72741" lon="7.04608">
        <ele>252.3</ele>
        <time>2024-02-01T17:06:37Z</time>
      </trkpt>
      <trkpt lat="48.72737" lon="7.04617">
        <ele>252.3</ele>
        <time>2024-02-01T17:06:39Z</time>
      </trkpt>
      <trkpt lat="48.72737" lon="7.04624">
        <ele>252.3</ele>
        <time>2024-02-01T17:06:41Z</time>
      </trkpt>
      <trkpt lat="48.72742" lon="7.04633">
        <ele>252.3</ele>
        <time>2024-02-01T17:06:47Z</time>
      </trkpt>
      <trkpt lat="48.7274" lon="7.04606">
        <ele>252.3</ele>
        <time>2024-02-01T17:06:57Z</time>
      </trkpt>
      <trkpt lat="48.72746" lon="7.04578">
        <ele>252.3</ele>
        <time>2024-02-01T17:07:11Z</time>
      </trkpt>
      <trkpt lat="48.72754" lon="7.04566">
        <ele>252.4</ele>
        <time>2024-02-01T17:07:19Z</time>
      </trkpt>
      <trkpt lat="48.72754" lon="7.0456">
        <ele>252.4</ele>
        <time>2024-02-01T17:07:22Z</time>
      </trkpt>
      <trkpt lat="48.72767" lon="7.0454">
        <ele>252.4</ele>
        <time>2024-02-01T17:07:34Z</time>
      </trkpt>
      <trkpt lat="48.72776" lon="7.04515">
        <ele>252.4</ele>
        <time>2024-02-01T17:07:43Z</time>
      </trkpt>
      <trkpt lat="48.72786" lon="7.04497">
        <ele>252.4</ele>
        <time>2024-02-01T17:07:49Z</time>
      </trkpt>
      <trkpt lat="48.72776" lon="7.04522">
        <ele>252.5</ele>
        <time>2024-02-01T17:07:57Z</time>
      </trkpt>
      <trkpt lat="48.72764" lon="7.04544">
        <ele>252.5</ele>
        <time>2024-02-01T17:08:06Z</time>
      </trkpt>
      <trkpt lat="48.72766" lon="7.04543">
        <ele>252.5</ele>
        <time>2024-02-01T17:08:08Z</time>
      </trkpt>
      <trkpt lat="48.72776" lon="7.04517">
        <ele>252.5</ele>
        <time>2024-02-01T17:08:19Z</time>
      </trkpt>
      <trkpt lat="48.72788" lon="7.04494">
        <ele>252.5</ele>
        <time>2024-02-01T17:08:29Z</time>
      </trkpt>
      <trkpt lat="48.728" lon="7.04472">
        <ele>252.5</ele>
        <time>2024-02-01T17:08:37Z</time>
      </trkpt>
      <trkpt lat="48.72803" lon="7.04472">
        <ele>252.5</ele>
        <time>2024-02-01T17:08:39Z</time>
      </trkpt>
      <trkpt lat="48.72805" lon="7.04474">
        <ele>252.5</ele>
        <time>2024-02-01T17:08:42Z</time>
      </trkpt>
      <trkpt lat="48.72791" lon="7.04492">
        <ele>252.5</ele>
        <time>2024-02-01T17:09:00Z</time>
      </trkpt>
      <trkpt lat="48.72788" lon="7.04495">
        <ele>252.5</ele>
        <time>2024-02-01T17:09:02Z</time>
      </trkpt>
      <trkpt lat="48.7279" lon="7.04496">
        <ele>252.5</ele>
        <time>2024-02-01T17:09:05Z</time>
      </trkpt>
      <trkpt lat="48.72789" lon="7.04492">
        <ele>252.5</ele>
        <time>2024-02-01T17:09:08Z</time>
      </trkpt>
      <trkpt lat="48.72786" lon="7.04494">
        <ele>252.5</ele>
        <time>2024-02-01T17:09:10Z</time>
      </trkpt>
      <trkpt lat="48.72784" lon="7.04498">
        <ele>252.5</ele>
        <time>2024-02-01T17:09:12Z</time>
      </trkpt>
      <trkpt lat="48.72796" lon="7.0448">
        <ele>252.6</ele>
        <time>2024-02-01T17:09:22Z</time>
      </trkpt>
      <trkpt lat="48.72812" lon="7.04469">
        <ele>252.6</ele>
        <time>2024-02-01T17:09:30Z</time>
      </trkpt>
      <trkpt lat="48.72831" lon="7.04477">
        <ele>252.6</ele>
        <time>2024-02-01T17:09:37Z</time>
      </trkpt>
      <trkpt lat="48.72849" lon="7.04489">
        <ele>252.6</ele>
        <time>2024-02-01T17:09:44Z</time>
      </trkpt>
      <trkpt lat="48.72859" lon="7.04512">
        <ele>252.7</ele>
        <time>2024-02-01T17:09:52Z</time>
      </trkpt>
      <trkpt lat="48.7286" lon="7.04543">
        <ele>252.8</ele>
        <time>2024-02-01T17:10:00Z</time>
      </trkpt>
      <trkpt lat="48.72854" lon="7.04559">
        <ele>252.8</ele>
        <time>2024-02-01T17:10:08Z</time>
      </trkpt>
      <trkpt lat="48.72854" lon="7.04556">
        <ele>252.8</ele>
        <time>2024-02-01T17:10:14Z</time>
      </trkpt>
      <trkpt lat="48.72862" lon="7.04526">
        <ele>252.9</ele>
        <time>2024-02-01T17:10:19Z</time>
      </trkpt>
      <trkpt lat="48.72862" lon="7.04519">
        <ele>252.9</ele>
        <time>2024-02-01T17:10:20Z</time>
      </trkpt>
      <trkpt lat="48.72858" lon="7.04506">
        <ele>252.8</ele>
        <time>2024-02-01T17:10:22Z</time>
      </trkpt>
      <trkpt lat="48.72849" lon="7.04488">
        <ele>252.7</ele>
        <time>2024-02-01T17:10:25Z</time>
      </trkpt>
      <trkpt lat="48.72839" lon="7.0448">
        <ele>252.6</ele>
        <time>2024-02-01T17:10:27Z</time>
      </trkpt>
      <trkpt lat="48.72829" lon="7.04475">
        <ele>252.6</ele>
        <time>2024-02-01T17:10:29Z</time>
      </trkpt>
      <trkpt lat="48.72818" lon="7.04472">
        <ele>252.6</ele>
        <time>2024-02-01T17:10:31Z</time>
      </trkpt>
      <trkpt lat="48.72808" lon="7.04474">
        <ele>252.5</ele>
        <time>2024-02-01T17:10:33Z</time>
      </trkpt>
      <trkpt lat="48.72799" lon="7.04481">
        <ele>252.5</ele>
        <time>2024-02-01T17:10:35Z</time>
      </trkpt>
      <trkpt lat="48.72791" lon="7.04492">
        <ele>252.5</ele>
        <time>2024-02-01T17:10:37Z</time>
      </trkpt>
      <trkpt lat="48.7278" lon="7.04517">
        <ele>252.5</ele>
        <time>2024-02-01T17:10:41Z</time>
      </trkpt>
      <trkpt lat="48.72768" lon="7.04541">
        <ele>252.5</ele>
        <time>2024-02-01T17:10:45Z</time>
      </trkpt>
      <trkpt lat="48.72757" lon="7.04567">
        <ele>252.4</ele>
        <time>2024-02-01T17:10:49Z</time>
      </trkpt>
      <trkpt lat="48.72751" lon="7.04582">
        <ele>252.4</ele>
        <time>2024-02-01T17:10:51Z</time>
      </trkpt>
      <trkpt lat="48.72745" lon="7.04604">
        <ele>252.3</ele>
        <time>2024-02-01T17:10:54Z</time>
      </trkpt>
      <trkpt lat="48.72744" lon="7.04619">
        <ele>252.3</ele>
        <time>2024-02-01T17:10:56Z</time>
      </trkpt>
      <trkpt lat="48.72746" lon="7.04633">
        <ele>252.4</ele>
        <time>2024-02-01T17:10:58Z</time>
      </trkpt>
      <trkpt lat="48.72749" lon="7.04644">
        <ele>252.5</ele>
        <time>2024-02-01T17:11:00Z</time>
      </trkpt>
      <trkpt lat="48.72757" lon="7.04654">
        <ele>252.5</ele>
        <time>2024-02-01T17:11:02Z</time>
      </trkpt>
      <trkpt lat="48.72776" lon="7.04668">
        <ele>252.5</ele>
        <time>2024-02-01T17:11:06Z</time>
      </trkpt>
      <trkpt lat="48.72787" lon="7.0467">
        <ele>252.5</ele>
        <time>2024-02-01T17:11:08Z</time>
      </trkpt>
      <trkpt lat="48.72797" lon="7.04668">
        <ele>252.6</ele>
        <time>2024-02-01T17:11:10Z</time>
      </trkpt>
      <trkpt lat="48.72807" lon="7.0466">
        <ele>252.6</ele>
        <time>2024-02-01T17:11:12Z</time>
      </trkpt>
      <trkpt lat="48.72815" lon="7.04648">
        <ele>252.7</ele>
        <time>2024-02-01T17:11:14Z</time>
      </trkpt>
      <trkpt lat="48.72828" lon="7.0462">
        <ele>252.8</ele>
        <time>2024-02-01T17:11:18Z</time>
      </trkpt>
      <trkpt lat="48.72841" lon="7.04593">
        <ele>252.9</ele>
        <time>2024-02-01T17:11:22Z</time>
      </trkpt>
      <trkpt lat="48.72854" lon="7.04566">
        <ele>253</ele>
        <time>2024-02-01T17:11:26Z</time>
      </trkpt>
      <trkpt lat="48.72863" lon="7.0454">
        <ele>252.9</ele>
        <time>2024-02-01T17:11:30Z</time>
      </trkpt>
      <trkpt lat="48.72863" lon="7.04526">
        <ele>252.9</ele>
        <time>2024-02-01T17:11:32Z</time>
      </trkpt>
      <trkpt lat="48.7286" lon="7.04513">
        <ele>252.8</ele>
        <time>2024-02-01T17:11:34Z</time>
      </trkpt>
      <trkpt lat="48.72854" lon="7.04501">
        <ele>252.7</ele>
        <time>2024-02-01T17:11:36Z</time>
      </trkpt>
      <trkpt lat="48.72847" lon="7.04491">
        <ele>252.7</ele>
        <time>2024-02-01T17:11:38Z</time>
      </trkpt>
      <trkpt lat="48.72838" lon="7.04483">
        <ele>252.6</ele>
        <time>2024-02-01T17:11:40Z</time>
      </trkpt>
      <trkpt lat="48.72827" lon="7.04479">
        <ele>252.6</ele>
        <time>2024-02-01T17:11:42Z</time>
      </trkpt>
      <trkpt lat="48.72816" lon="7.04478">
        <ele>252.6</ele>
        <time>2024-02-01T17:11:44Z</time>
      </trkpt>
      <trkpt lat="48.72806" lon="7.04481">
        <ele>252.5</ele>
        <time>2024-02-01T17:11:46Z</time>
      </trkpt>
      <trkpt lat="48.72797" lon="7.04489">
        <ele>252.5</ele>
        <time>2024-02-01T17:11:48Z</time>
      </trkpt>
      <trkpt lat="48.72791" lon="7.045">
        <ele>252.5</ele>
        <time>2024-02-01T17:11:50Z</time>
      </trkpt>
      <trkpt lat="48.72779" lon="7.04524">
        <ele>252.5</ele>
        <time>2024-02-01T17:11:54Z</time>
      </trkpt>
      <trkpt lat="48.72768" lon="7.04549">
        <ele>252.4</ele>
        <time>2024-02-01T17:11:58Z</time>
      </trkpt>
      <trkpt lat="48.72757" lon="7.04574">
        <ele>252.4</ele>
        <time>2024-02-01T17:12:02Z</time>
      </trkpt>
      <trkpt lat="48.72747" lon="7.04598">
        <ele>252.3</ele>
        <time>2024-02-01T17:12:06Z</time>
      </trkpt>
      <trkpt lat="48.72746" lon="7.04604">
        <ele>252.3</ele>
        <time>2024-02-01T17:12:07Z</time>
      </trkpt>
      <trkpt lat="48.72744" lon="7.04617">
        <ele>252.3</ele>
        <time>2024-02-01T17:12:09Z</time>
      </trkpt>
      <trkpt lat="48.72746" lon="7.0463">
        <ele>252.4</ele>
        <time>2024-02-01T17:12:11Z</time>
      </trkpt>
      <trkpt lat="48.7275" lon="7.04642">
        <ele>252.5</ele>
        <time>2024-02-01T17:12:13Z</time>
      </trkpt>
      <trkpt lat="48.72756" lon="7.04653">
        <ele>252.5</ele>
        <time>2024-02-01T17:12:15Z</time>
      </trkpt>
      <trkpt lat="48.72764" lon="7.04662">
        <ele>252.5</ele>
        <time>2024-02-01T17:12:17Z</time>
      </trkpt>
      <trkpt lat="48.72773" lon="7.04669">
        <ele>252.5</ele>
        <time>2024-02-01T17:12:19Z</time>
      </trkpt>
      <trkpt lat="48.72783" lon="7.04672">
        <ele>252.5</ele>
        <time>2024-02-01T17:12:21Z</time>
      </trkpt>
      <trkpt lat="48.72793" lon="7.04672">
        <ele>252.6</ele>
        <time>2024-02-01T17:12:23Z</time>
      </trkpt>
      <trkpt lat="48.72802" lon="7.04666">
        <ele>252.6</ele>
        <time>2024-02-01T17:12:25Z</time>
      </trkpt>
      <trkpt lat="48.72811" lon="7.04655">
        <ele>252.7</ele>
        <time>2024-02-01T17:12:27Z</time>
      </trkpt>
      <trkpt lat="48.72825" lon="7.04626">
        <ele>252.8</ele>
        <time>2024-02-01T17:12:31Z</time>
      </trkpt>
      <trkpt lat="48.72837" lon="7.04599">
        <ele>252.9</ele>
        <time>2024-02-01T17:12:35Z</time>
      </trkpt>
      <trkpt lat="48.7285" lon="7.04573">
        <ele>253</ele>
        <time>2024-02-01T17:12:39Z</time>
      </trkpt>
      <trkpt lat="48.7286" lon="7.04545">
        <ele>252.9</ele>
        <time>2024-02-01T17:12:43Z</time>
      </trkpt>
      <trkpt lat="48.72862" lon="7.04538">
        <ele>252.9</ele>
        <time>2024-02-01T17:12:44Z</time>
      </trkpt>
      <trkpt lat="48.72863" lon="7.04525">
        <ele>252.9</ele>
        <time>2024-02-01T17:12:46Z</time>
      </trkpt>
      <trkpt lat="48.72861" lon="7.04512">
        <ele>252.8</ele>
        <time>2024-02-01T17:12:48Z</time>
      </trkpt>
      <trkpt lat="48.72856" lon="7.04499">
        <ele>252.7</ele>
        <time>2024-02-01T17:12:50Z</time>
      </trkpt>
      <trkpt lat="48.72845" lon="7.04484">
        <ele>252.6</ele>
        <time>2024-02-01T17:12:53Z</time>
      </trkpt>
      <trkpt lat="48.7283" lon="7.04475">
        <ele>252.6</ele>
        <time>2024-02-01T17:12:56Z</time>
      </trkpt>
      <trkpt lat="48.72819" lon="7.04474">
        <ele>252.6</ele>
        <time>2024-02-01T17:12:58Z</time>
      </trkpt>
      <trkpt lat="48.72809" lon="7.04476">
        <ele>252.5</ele>
        <time>2024-02-01T17:13:00Z</time>
      </trkpt>
      <trkpt lat="48.728" lon="7.04483">
        <ele>252.5</ele>
        <time>2024-02-01T17:13:02Z</time>
      </trkpt>
      <trkpt lat="48.72793" lon="7.04493">
        <ele>252.5</ele>
        <time>2024-02-01T17:13:04Z</time>
      </trkpt>
      <trkpt lat="48.72782" lon="7.04518">
        <ele>252.5</ele>
        <time>2024-02-01T17:13:08Z</time>
      </trkpt>
      <trkpt lat="48.72771" lon="7.04544">
        <ele>252.5</ele>
        <time>2024-02-01T17:13:12Z</time>
      </trkpt>
      <trkpt lat="48.72759" lon="7.04569">
        <ele>252.4</ele>
        <time>2024-02-01T17:13:16Z</time>
      </trkpt>
      <trkpt lat="48.7275" lon="7.04588">
        <ele>252.4</ele>
        <time>2024-02-01T17:13:19Z</time>
      </trkpt>
      <trkpt lat="48.72743" lon="7.04604">
        <ele>252.3</ele>
        <time>2024-02-01T17:13:22Z</time>
      </trkpt>
      <trkpt lat="48.72737" lon="7.04611">
        <ele>252.3</ele>
        <time>2024-02-01T17:13:25Z</time>
      </trkpt>
      <trkpt lat="48.72734" lon="7.04608">
        <ele>252.3</ele>
        <time>2024-02-01T17:13:27Z</time>
      </trkpt>
      <trkpt lat="48.72743" lon="7.04582">
        <ele>252.3</ele>
        <time>2024-02-01T17:13:38Z</time>
      </trkpt>
      <trkpt lat="48.72753" lon="7.0456">
        <ele>252.4</ele>
        <time>2024-02-01T17:13:48Z</time>
      </trkpt>
      <trkpt lat="48.72752" lon="7.04565">
        <ele>252.4</ele>
        <time>2024-02-01T17:13:51Z</time>
      </trkpt>
      <trkpt lat="48.72751" lon="7.04568">
        <ele>252.4</ele>
        <time>2024-02-01T17:13:53Z</time>
      </trkpt>
      <trkpt lat="48.72753" lon="7.04569">
        <ele>252.4</ele>
        <time>2024-02-01T17:13:56Z</time>
      </trkpt>
      <trkpt lat="48.72764" lon="7.04545">
        <ele>252.4</ele>
        <time>2024-02-01T17:14:08Z</time>
      </trkpt>
      <trkpt lat="48.72774" lon="7.04522">
        <ele>252.4</ele>
        <time>2024-02-01T17:14:18Z</time>
      </trkpt>
      <trkpt lat="48.72779" lon="7.04508">
        <ele>252.4</ele>
        <time>2024-02-01T17:14:24Z</time>
      </trkpt>
      <trkpt lat="48.72777" lon="7.04511">
        <ele>252.4</ele>
        <time>2024-02-01T17:14:27Z</time>
      </trkpt>
      <trkpt lat="48.72768" lon="7.04537">
        <ele>252.5</ele>
        <time>2024-02-01T17:14:38Z</time>
      </trkpt>
      <trkpt lat="48.72767" lon="7.04542">
        <ele>252.4</ele>
        <time>2024-02-01T17:14:40Z</time>
      </trkpt>
      <trkpt lat="48.72755" lon="7.04565">
        <ele>252.4</ele>
        <time>2024-02-01T17:14:51Z</time>
      </trkpt>
      <trkpt lat="48.72752" lon="7.04579">
        <ele>252.4</ele>
        <time>2024-02-01T17:14:58Z</time>
      </trkpt>
      <trkpt lat="48.7275" lon="7.04586">
        <ele>252.4</ele>
        <time>2024-02-01T17:15:06Z</time>
      </trkpt>
      <trkpt lat="48.72749" lon="7.04588">
        <ele>252.4</ele>
        <time>2024-02-01T17:15:09Z</time>
      </trkpt>
      <trkpt lat="48.72748" lon="7.04588">
        <ele>252.4</ele>
        <time>2024-02-01T17:15:11Z</time>
      </trkpt>
      <trkpt lat="48.72743" lon="7.04619">
        <ele>252.4</ele>
        <time>2024-02-01T17:15:16Z</time>
      </trkpt>
      <trkpt lat="48.72744" lon="7.04627">
        <ele>252.4</ele>
        <time>2024-02-01T17:15:17Z</time>
      </trkpt>
      <trkpt lat="48.7275" lon="7.04642">
        <ele>252.5</ele>
        <time>2024-02-01T17:15:19Z</time>
      </trkpt>
      <trkpt lat="48.72758" lon="7.04655">
        <ele>252.5</ele>
        <time>2024-02-01T17:15:21Z</time>
      </trkpt>
      <trkpt lat="48.72768" lon="7.04666">
        <ele>252.5</ele>
        <time>2024-02-01T17:15:23Z</time>
      </trkpt>
      <trkpt lat="48.72779" lon="7.04672">
        <ele>252.5</ele>
        <time>2024-02-01T17:15:25Z</time>
      </trkpt>
      <trkpt lat="48.72791" lon="7.04674">
        <ele>252.6</ele>
        <time>2024-02-01T17:15:27Z</time>
      </trkpt>
      <trkpt lat="48.72802" lon="7.04669">
        <ele>252.6</ele>
        <time>2024-02-01T17:15:29Z</time>
      </trkpt>
      <trkpt lat="48.72812" lon="7.04657">
        <ele>252.7</ele>
        <time>2024-02-01T17:15:31Z</time>
      </trkpt>
      <trkpt lat="48.7282" lon="7.04643">
        <ele>252.7</ele>
        <time>2024-02-01T17:15:33Z</time>
      </trkpt>
      <trkpt lat="48.72834" lon="7.04615">
        <ele>252.9</ele>
        <time>2024-02-01T17:15:37Z</time>
      </trkpt>
      <trkpt lat="48.72844" lon="7.04592">
        <ele>253</ele>
        <time>2024-02-01T17:15:40Z</time>
      </trkpt>
      <trkpt lat="48.72856" lon="7.04565">
        <ele>253</ele>
        <time>2024-02-01T17:15:44Z</time>
      </trkpt>
      <trkpt lat="48.72863" lon="7.04543">
        <ele>252.9</ele>
        <time>2024-02-01T17:15:47Z</time>
      </trkpt>
      <trkpt lat="48.72863" lon="7.04527">
        <ele>252.9</ele>
        <time>2024-02-01T17:15:49Z</time>
      </trkpt>
      <trkpt lat="48.7286" lon="7.04512">
        <ele>252.8</ele>
        <time>2024-02-01T17:15:51Z</time>
      </trkpt>
      <trkpt lat="48.72853" lon="7.04498">
        <ele>252.7</ele>
        <time>2024-02-01T17:15:53Z</time>
      </trkpt>
      <trkpt lat="48.72844" lon="7.04487">
        <ele>252.6</ele>
        <time>2024-02-01T17:15:55Z</time>
      </trkpt>
      <trkpt lat="48.72832" lon="7.0448">
        <ele>252.6</ele>
        <time>2024-02-01T17:15:57Z</time>
      </trkpt>
      <trkpt lat="48.72821" lon="7.04477">
        <ele>252.6</ele>
        <time>2024-02-01T17:15:59Z</time>
      </trkpt>
      <trkpt lat="48.72809" lon="7.04479">
        <ele>252.5</ele>
        <time>2024-02-01T17:16:01Z</time>
      </trkpt>
      <trkpt lat="48.72799" lon="7.04486">
        <ele>252.5</ele>
        <time>2024-02-01T17:16:03Z</time>
      </trkpt>
      <trkpt lat="48.72791" lon="7.04498">
        <ele>252.5</ele>
        <time>2024-02-01T17:16:05Z</time>
      </trkpt>
      <trkpt lat="48.72779" lon="7.04526">
        <ele>252.5</ele>
        <time>2024-02-01T17:16:09Z</time>
      </trkpt>
      <trkpt lat="48.72766" lon="7.04555">
        <ele>252.4</ele>
        <time>2024-02-01T17:16:13Z</time>
      </trkpt>
      <trkpt lat="48.72754" lon="7.04583">
        <ele>252.4</ele>
        <time>2024-02-01T17:16:17Z</time>
      </trkpt>
      <trkpt lat="48.72751" lon="7.04589">
        <ele>252.4</ele>
        <time>2024-02-01T17:16:18Z</time>
      </trkpt>
      <trkpt lat="48.72738" lon="7.04611">
        <ele>252.3</ele>
        <time>2024-02-01T17:16:24Z</time>
      </trkpt>
      <trkpt lat="48.72736" lon="7.04611">
        <ele>252.3</ele>
        <time>2024-02-01T17:16:26Z</time>
      </trkpt>
      <trkpt lat="48.72735" lon="7.04609">
        <ele>252.3</ele>
        <time>2024-02-01T17:16:29Z</time>
      </trkpt>
      <trkpt lat="48.72739" lon="7.04586">
        <ele>252.3</ele>
        <time>2024-02-01T17:16:43Z</time>
      </trkpt>
      <trkpt lat="48.72739" lon="7.04586">
        <ele>252.3</ele>
        <time>2024-02-01T17:16:45Z</time>
      </trkpt>
      <trkpt lat="48.72742" lon="7.04581">
        <ele>252.4</ele>
        <time>2024-02-01T17:16:50Z</time>
      </trkpt>
      <trkpt lat="48.72754" lon="7.04557">
        <ele>252.4</ele>
        <time>2024-02-01T17:17:01Z</time>
      </trkpt>
      <trkpt lat="48.72766" lon="7.04533">
        <ele>252.5</ele>
        <time>2024-02-01T17:17:10Z</time>
      </trkpt>
      <trkpt lat="48.72777" lon="7.0451">
        <ele>252.5</ele>
        <time>2024-02-01T17:17:18Z</time>
      </trkpt>
      <trkpt lat="48.72789" lon="7.04489">
        <ele>252.5</ele>
        <time>2024-02-01T17:17:29Z</time>
      </trkpt>
      <trkpt lat="48.72803" lon="7.04469">
        <ele>252.5</ele>
        <time>2024-02-01T17:17:39Z</time>
      </trkpt>
      <trkpt lat="48.72804" lon="7.04467">
        <ele>252.5</ele>
        <time>2024-02-01T17:17:40Z</time>
      </trkpt>
      <trkpt lat="48.72803" lon="7.04466">
        <ele>252.5</ele>
        <time>2024-02-01T17:17:43Z</time>
      </trkpt>
      <trkpt lat="48.72799" lon="7.04472">
        <ele>252.5</ele>
        <time>2024-02-01T17:17:49Z</time>
      </trkpt>
      <trkpt lat="48.72799" lon="7.04474">
        <ele>252.5</ele>
        <time>2024-02-01T17:17:52Z</time>
      </trkpt>
      <trkpt lat="48.72787" lon="7.04498">
        <ele>252.5</ele>
        <time>2024-02-01T17:17:56Z</time>
      </trkpt>
      <trkpt lat="48.72776" lon="7.04522">
        <ele>252.5</ele>
        <time>2024-02-01T17:17:59Z</time>
      </trkpt>
      <trkpt lat="48.72765" lon="7.04548">
        <ele>252.4</ele>
        <time>2024-02-01T17:18:02Z</time>
      </trkpt>
      <trkpt lat="48.72753" lon="7.04573">
        <ele>252.4</ele>
        <time>2024-02-01T17:18:05Z</time>
      </trkpt>
      <trkpt lat="48.7275" lon="7.04582">
        <ele>252.4</ele>
        <time>2024-02-01T17:18:06Z</time>
      </trkpt>
      <trkpt lat="48.7274" lon="7.04606">
        <ele>252.3</ele>
        <time>2024-02-01T17:18:09Z</time>
      </trkpt>
      <trkpt lat="48.72734" lon="7.04622">
        <ele>252.3</ele>
        <time>2024-02-01T17:18:13Z</time>
      </trkpt>
      <trkpt lat="48.72742" lon="7.04633">
        <ele>252.3</ele>
        <time>2024-02-01T17:18:23Z</time>
      </trkpt>
      <trkpt lat="48.72742" lon="7.04605">
        <ele>252.3</ele>
        <time>2024-02-01T17:18:32Z</time>
      </trkpt>
      <trkpt lat="48.72748" lon="7.04577">
        <ele>252.4</ele>
        <time>2024-02-01T17:18:42Z</time>
      </trkpt>
      <trkpt lat="48.72759" lon="7.04552">
        <ele>252.4</ele>
        <time>2024-02-01T17:18:53Z</time>
      </trkpt>
      <trkpt lat="48.72769" lon="7.04535">
        <ele>252.4</ele>
        <time>2024-02-01T17:19:16Z</time>
      </trkpt>
      <trkpt lat="48.72779" lon="7.04508">
        <ele>252.4</ele>
        <time>2024-02-01T17:19:25Z</time>
      </trkpt>
      <trkpt lat="48.7279" lon="7.04486">
        <ele>252.5</ele>
        <time>2024-02-01T17:19:32Z</time>
      </trkpt>
      <trkpt lat="48.72799" lon="7.04474">
        <ele>252.5</ele>
        <time>2024-02-01T17:19:38Z</time>
      </trkpt>
      <trkpt lat="48.72788" lon="7.045">
        <ele>252.5</ele>
        <time>2024-02-01T17:19:45Z</time>
      </trkpt>
      <trkpt lat="48.72779" lon="7.04524">
        <ele>252.5</ele>
        <time>2024-02-01T17:19:52Z</time>
      </trkpt>
      <trkpt lat="48.72771" lon="7.04547">
        <ele>252.4</ele>
        <time>2024-02-01T17:19:59Z</time>
      </trkpt>
      <trkpt lat="48.7277" lon="7.04548">
        <ele>252.4</ele>
        <time>2024-02-01T17:20:01Z</time>
      </trkpt>
      <trkpt lat="48.72779" lon="7.04522">
        <ele>252.5</ele>
        <time>2024-02-01T17:20:19Z</time>
      </trkpt>
      <trkpt lat="48.72789" lon="7.04496">
        <ele>252.5</ele>
        <time>2024-02-01T17:20:27Z</time>
      </trkpt>
      <trkpt lat="48.72802" lon="7.04475">
        <ele>252.5</ele>
        <time>2024-02-01T17:20:37Z</time>
      </trkpt>
      <trkpt lat="48.72822" lon="7.04473">
        <ele>252.6</ele>
        <time>2024-02-01T17:20:47Z</time>
      </trkpt>
      <trkpt lat="48.7284" lon="7.0448">
        <ele>252.6</ele>
        <time>2024-02-01T17:20:54Z</time>
      </trkpt>
      <trkpt lat="48.72854" lon="7.04496">
        <ele>252.7</ele>
        <time>2024-02-01T17:21:02Z</time>
      </trkpt>
      <trkpt lat="48.7286" lon="7.04522">
        <ele>252.8</ele>
        <time>2024-02-01T17:21:11Z</time>
      </trkpt>
      <trkpt lat="48.72859" lon="7.04551">
        <ele>252.9</ele>
        <time>2024-02-01T17:21:20Z</time>
      </trkpt>
      <trkpt lat="48.72851" lon="7.04569">
        <ele>252.9</ele>
        <time>2024-02-01T17:21:27Z</time>
      </trkpt>
      <trkpt lat="48.72851" lon="7.04565">
        <ele>253</ele>
        <time>2024-02-01T17:21:31Z</time>
      </trkpt>
      <trkpt lat="48.72851" lon="7.0456">
        <ele>253</ele>
        <time>2024-02-01T17:21:57Z</time>
      </trkpt>
      <trkpt lat="48.72857" lon="7.04541">
        <ele>252.9</ele>
        <time>2024-02-01T17:22:00Z</time>
      </trkpt>
      <trkpt lat="48.72855" lon="7.04508">
        <ele>252.8</ele>
        <time>2024-02-01T17:22:04Z</time>
      </trkpt>
      <trkpt lat="48.72849" lon="7.04495">
        <ele>252.7</ele>
        <time>2024-02-01T17:22:06Z</time>
      </trkpt>
      <trkpt lat="48.72841" lon="7.04484">
        <ele>252.6</ele>
        <time>2024-02-01T17:22:08Z</time>
      </trkpt>
      <trkpt lat="48.72832" lon="7.04477">
        <ele>252.6</ele>
        <time>2024-02-01T17:22:10Z</time>
      </trkpt>
      <trkpt lat="48.7282" lon="7.04475">
        <ele>252.6</ele>
        <time>2024-02-01T17:22:12Z</time>
      </trkpt>
      <trkpt lat="48.72809" lon="7.04478">
        <ele>252.6</ele>
        <time>2024-02-01T17:22:14Z</time>
      </trkpt>
      <trkpt lat="48.728" lon="7.04486">
        <ele>252.5</ele>
        <time>2024-02-01T17:22:16Z</time>
      </trkpt>
      <trkpt lat="48.72792" lon="7.04498">
        <ele>252.5</ele>
        <time>2024-02-01T17:22:18Z</time>
      </trkpt>
      <trkpt lat="48.72779" lon="7.04524">
        <ele>252.5</ele>
        <time>2024-02-01T17:22:22Z</time>
      </trkpt>
      <trkpt lat="48.72768" lon="7.0455">
        <ele>252.4</ele>
        <time>2024-02-01T17:22:26Z</time>
      </trkpt>
      <trkpt lat="48.72756" lon="7.04577">
        <ele>252.4</ele>
        <time>2024-02-01T17:22:30Z</time>
      </trkpt>
      <trkpt lat="48.72746" lon="7.04602">
        <ele>252.3</ele>
        <time>2024-02-01T17:22:34Z</time>
      </trkpt>
      <trkpt lat="48.72744" lon="7.04617">
        <ele>252.3</ele>
        <time>2024-02-01T17:22:36Z</time>
      </trkpt>
      <trkpt lat="48.72746" lon="7.0463">
        <ele>252.4</ele>
        <time>2024-02-01T17:22:38Z</time>
      </trkpt>
      <trkpt lat="48.72751" lon="7.04642">
        <ele>252.5</ele>
        <time>2024-02-01T17:22:40Z</time>
      </trkpt>
      <trkpt lat="48.72761" lon="7.04657">
        <ele>252.5</ele>
        <time>2024-02-01T17:22:43Z</time>
      </trkpt>
      <trkpt lat="48.72769" lon="7.04662">
        <ele>252.5</ele>
        <time>2024-02-01T17:22:45Z</time>
      </trkpt>
      <trkpt lat="48.72784" lon="7.04668">
        <ele>252.5</ele>
        <time>2024-02-01T17:22:48Z</time>
      </trkpt>
      <trkpt lat="48.72795" lon="7.04667">
        <ele>252.6</ele>
        <time>2024-02-01T17:22:50Z</time>
      </trkpt>
      <trkpt lat="48.72805" lon="7.04659">
        <ele>252.6</ele>
        <time>2024-02-01T17:22:52Z</time>
      </trkpt>
      <trkpt lat="48.72813" lon="7.04647">
        <ele>252.7</ele>
        <time>2024-02-01T17:22:54Z</time>
      </trkpt>
      <trkpt lat="48.72827" lon="7.0462">
        <ele>252.8</ele>
        <time>2024-02-01T17:22:58Z</time>
      </trkpt>
      <trkpt lat="48.7284" lon="7.04593">
        <ele>252.9</ele>
        <time>2024-02-01T17:23:02Z</time>
      </trkpt>
      <trkpt lat="48.72852" lon="7.04567">
        <ele>253</ele>
        <time>2024-02-01T17:23:06Z</time>
      </trkpt>
      <trkpt lat="48.72859" lon="7.04548">
        <ele>252.9</ele>
        <time>2024-02-01T17:23:09Z</time>
      </trkpt>
      <trkpt lat="48.72861" lon="7.04535">
        <ele>252.9</ele>
        <time>2024-02-01T17:23:11Z</time>
      </trkpt>
      <trkpt lat="48.7286" lon="7.04521">
        <ele>252.9</ele>
        <time>2024-02-01T17:23:13Z</time>
      </trkpt>
      <trkpt lat="48.72857" lon="7.04507">
        <ele>252.8</ele>
        <time>2024-02-01T17:23:15Z</time>
      </trkpt>
      <trkpt lat="48.72851" lon="7.04495">
        <ele>252.7</ele>
        <time>2024-02-01T17:23:17Z</time>
      </trkpt>
      <trkpt lat="48.72843" lon="7.04485">
        <ele>252.6</ele>
        <time>2024-02-01T17:23:19Z</time>
      </trkpt>
      <trkpt lat="48.72828" lon="7.04476">
        <ele>252.6</ele>
        <time>2024-02-01T17:23:22Z</time>
      </trkpt>
      <trkpt lat="48.72818" lon="7.04474">
        <ele>252.6</ele>
        <time>2024-02-01T17:23:24Z</time>
      </trkpt>
      <trkpt lat="48.72808" lon="7.04477">
        <ele>252.5</ele>
        <time>2024-02-01T17:23:26Z</time>
      </trkpt>
      <trkpt lat="48.72799" lon="7.04485">
        <ele>252.5</ele>
        <time>2024-02-01T17:23:28Z</time>
      </trkpt>
      <trkpt lat="48.72792" lon="7.04495">
        <ele>252.5</ele>
        <time>2024-02-01T17:23:30Z</time>
      </trkpt>
      <trkpt lat="48.72781" lon="7.04522">
        <ele>252.5</ele>
        <time>2024-02-01T17:23:34Z</time>
      </trkpt>
      <trkpt lat="48.7277" lon="7.04548">
        <ele>252.4</ele>
        <time>2024-02-01T17:23:38Z</time>
      </trkpt>
      <trkpt lat="48.72759" lon="7.04575">
        <ele>252.4</ele>
        <time>2024-02-01T17:23:42Z</time>
      </trkpt>
      <trkpt lat="48.72748" lon="7.04601">
        <ele>252.3</ele>
        <time>2024-02-01T17:23:46Z</time>
      </trkpt>
      <trkpt lat="48.72746" lon="7.04608">
        <ele>252.3</ele>
        <time>2024-02-01T17:23:47Z</time>
      </trkpt>
      <trkpt lat="48.72745" lon="7.04622">
        <ele>252.3</ele>
        <time>2024-02-01T17:23:49Z</time>
      </trkpt>
      <trkpt lat="48.72748" lon="7.04635">
        <ele>252.4</ele>
        <time>2024-02-01T17:23:51Z</time>
      </trkpt>
      <trkpt lat="48.72752" lon="7.04646">
        <ele>252.5</ele>
        <time>2024-02-01T17:23:53Z</time>
      </trkpt>
      <trkpt lat="48.72759" lon="7.04656">
        <ele>252.5</ele>
        <time>2024-02-01T17:23:55Z</time>
      </trkpt>
      <trkpt lat="48.72767" lon="7.04664">
        <ele>252.5</ele>
        <time>2024-02-01T17:23:57Z</time>
      </trkpt>
      <trkpt lat="48.72775" lon="7.0467">
        <ele>252.5</ele>
        <time>2024-02-01T17:23:59Z</time>
      </trkpt>
      <trkpt lat="48.72785" lon="7.04673">
        <ele>252.5</ele>
        <time>2024-02-01T17:24:01Z</time>
      </trkpt>
      <trkpt lat="48.72795" lon="7.04671">
        <ele>252.6</ele>
        <time>2024-02-01T17:24:03Z</time>
      </trkpt>
      <trkpt lat="48.72804" lon="7.04664">
        <ele>252.6</ele>
        <time>2024-02-01T17:24:05Z</time>
      </trkpt>
      <trkpt lat="48.72812" lon="7.04653">
        <ele>252.7</ele>
        <time>2024-02-01T17:24:07Z</time>
      </trkpt>
      <trkpt lat="48.72826" lon="7.04627">
        <ele>252.8</ele>
        <time>2024-02-01T17:24:11Z</time>
      </trkpt>
      <trkpt lat="48.72838" lon="7.04602">
        <ele>252.9</ele>
        <time>2024-02-01T17:24:15Z</time>
      </trkpt>
      <trkpt lat="48.72849" lon="7.04576">
        <ele>253</ele>
        <time>2024-02-01T17:24:19Z</time>
      </trkpt>
      <trkpt lat="48.72858" lon="7.0455">
        <ele>253</ele>
        <time>2024-02-01T17:24:23Z</time>
      </trkpt>
      <trkpt lat="48.72861" lon="7.04543">
        <ele>252.9</ele>
        <time>2024-02-01T17:24:24Z</time>
      </trkpt>
      <trkpt lat="48.72862" lon="7.04529">
        <ele>252.9</ele>
        <time>2024-02-01T17:24:26Z</time>
      </trkpt>
      <trkpt lat="48.7286" lon="7.04515">
        <ele>252.8</ele>
        <time>2024-02-01T17:24:28Z</time>
      </trkpt>
      <trkpt lat="48.72854" lon="7.04502">
        <ele>252.8</ele>
        <time>2024-02-01T17:24:30Z</time>
      </trkpt>
      <trkpt lat="48.72847" lon="7.04491">
        <ele>252.7</ele>
        <time>2024-02-01T17:24:32Z</time>
      </trkpt>
      <trkpt lat="48.72834" lon="7.04479">
        <ele>252.6</ele>
        <time>2024-02-01T17:24:35Z</time>
      </trkpt>
      <trkpt lat="48.72823" lon="7.04476">
        <ele>252.6</ele>
        <time>2024-02-01T17:24:37Z</time>
      </trkpt>
      <trkpt lat="48.72813" lon="7.04476">
        <ele>252.6</ele>
        <time>2024-02-01T17:24:39Z</time>
      </trkpt>
      <trkpt lat="48.72803" lon="7.04481">
        <ele>252.5</ele>
        <time>2024-02-01T17:24:41Z</time>
      </trkpt>
      <trkpt lat="48.72795" lon="7.0449">
        <ele>252.5</ele>
        <time>2024-02-01T17:24:43Z</time>
      </trkpt>
      <trkpt lat="48.72788" lon="7.04502">
        <ele>252.5</ele>
        <time>2024-02-01T17:24:45Z</time>
      </trkpt>
      <trkpt lat="48.72776" lon="7.04529">
        <ele>252.5</ele>
        <time>2024-02-01T17:24:49Z</time>
      </trkpt>
      <trkpt lat="48.72764" lon="7.04556">
        <ele>252.4</ele>
        <time>2024-02-01T17:24:53Z</time>
      </trkpt>
      <trkpt lat="48.72752" lon="7.04583">
        <ele>252.4</ele>
        <time>2024-02-01T17:24:57Z</time>
      </trkpt>
      <trkpt lat="48.72749" lon="7.04589">
        <ele>252.4</ele>
        <time>2024-02-01T17:24:58Z</time>
      </trkpt>
      <trkpt lat="48.7274" lon="7.04615">
        <ele>252.3</ele>
        <time>2024-02-01T17:25:04Z</time>
      </trkpt>
      <trkpt lat="48.72741" lon="7.04633">
        <ele>252.3</ele>
        <time>2024-02-01T17:25:16Z</time>
      </trkpt>
      <trkpt lat="48.72739" lon="7.04604">
        <ele>252.3</ele>
        <time>2024-02-01T17:25:27Z</time>
      </trkpt>
      <trkpt lat="48.72745" lon="7.04578">
        <ele>252.4</ele>
        <time>2024-02-01T17:25:40Z</time>
      </trkpt>
      <trkpt lat="48.7275" lon="7.04567">
        <ele>252.4</ele>
        <time>2024-02-01T17:25:52Z</time>
      </trkpt>
      <trkpt lat="48.7275" lon="7.04568">
        <ele>252.4</ele>
        <time>2024-02-01T17:25:56Z</time>
      </trkpt>
      <trkpt lat="48.72759" lon="7.04544">
        <ele>252.4</ele>
        <time>2024-02-01T17:26:10Z</time>
      </trkpt>
      <trkpt lat="48.7276" lon="7.04541">
        <ele>252.4</ele>
        <time>2024-02-01T17:26:12Z</time>
      </trkpt>
      <trkpt lat="48.72761" lon="7.0454">
        <ele>252.4</ele>
        <time>2024-02-01T17:26:14Z</time>
      </trkpt>
      <trkpt lat="48.72763" lon="7.04539">
        <ele>252.4</ele>
        <time>2024-02-01T17:26:17Z</time>
      </trkpt>
      <trkpt lat="48.72765" lon="7.04538">
        <ele>252.4</ele>
        <time>2024-02-01T17:26:19Z</time>
      </trkpt>
      <trkpt lat="48.72767" lon="7.04542">
        <ele>252.4</ele>
        <time>2024-02-01T17:26:23Z</time>
      </trkpt>
      <trkpt lat="48.72759" lon="7.04569">
        <ele>252.4</ele>
        <time>2024-02-01T17:26:35Z</time>
      </trkpt>
      <trkpt lat="48.7275" lon="7.04588">
        <ele>252.4</ele>
        <time>2024-02-01T17:26:44Z</time>
      </trkpt>
      <trkpt lat="48.72744" lon="7.0462">
        <ele>252.4</ele>
        <time>2024-02-01T17:26:49Z</time>
      </trkpt>
      <trkpt lat="48.72747" lon="7.04636">
        <ele>252.5</ele>
        <time>2024-02-01T17:26:51Z</time>
      </trkpt>
      <trkpt lat="48.72751" lon="7.04651">
        <ele>252.5</ele>
        <time>2024-02-01T17:26:53Z</time>
      </trkpt>
      <trkpt lat="48.72759" lon="7.04663">
        <ele>252.5</ele>
        <time>2024-02-01T17:26:55Z</time>
      </trkpt>
      <trkpt lat="48.72769" lon="7.04671">
        <ele>252.5</ele>
        <time>2024-02-01T17:26:57Z</time>
      </trkpt>
      <trkpt lat="48.72781" lon="7.04674">
        <ele>252.5</ele>
        <time>2024-02-01T17:26:59Z</time>
      </trkpt>
      <trkpt lat="48.72793" lon="7.04671">
        <ele>252.6</ele>
        <time>2024-02-01T17:27:01Z</time>
      </trkpt>
      <trkpt lat="48.72804" lon="7.04662">
        <ele>252.6</ele>
        <time>2024-02-01T17:27:03Z</time>
      </trkpt>
      <trkpt lat="48.72813" lon="7.04646">
        <ele>252.7</ele>
        <time>2024-02-01T17:27:05Z</time>
      </trkpt>
      <trkpt lat="48.72826" lon="7.04623">
        <ele>252.8</ele>
        <time>2024-02-01T17:27:08Z</time>
      </trkpt>
      <trkpt lat="48.72837" lon="7.046">
        <ele>252.9</ele>
        <time>2024-02-01T17:27:11Z</time>
      </trkpt>
      <trkpt lat="48.72849" lon="7.04571">
        <ele>253</ele>
        <time>2024-02-01T17:27:15Z</time>
      </trkpt>
      <trkpt lat="48.72855" lon="7.04556">
        <ele>253</ele>
        <time>2024-02-01T17:27:17Z</time>
      </trkpt>
      <trkpt lat="48.72859" lon="7.0454">
        <ele>252.9</ele>
        <time>2024-02-01T17:27:19Z</time>
      </trkpt>
      <trkpt lat="48.7286" lon="7.04525">
        <ele>252.9</ele>
        <time>2024-02-01T17:27:21Z</time>
      </trkpt>
      <trkpt lat="48.72857" lon="7.04509">
        <ele>252.8</ele>
        <time>2024-02-01T17:27:23Z</time>
      </trkpt>
      <trkpt lat="48.72851" lon="7.04496">
        <ele>252.7</ele>
        <time>2024-02-01T17:27:25Z</time>
      </trkpt>
      <trkpt lat="48.72842" lon="7.04485">
        <ele>252.6</ele>
        <time>2024-02-01T17:27:27Z</time>
      </trkpt>
      <trkpt lat="48.72833" lon="7.04476">
        <ele>252.6</ele>
        <time>2024-02-01T17:27:29Z</time>
      </trkpt>
      <trkpt lat="48.72822" lon="7.04473">
        <ele>252.6</ele>
        <time>2024-02-01T17:27:31Z</time>
      </trkpt>
      <trkpt lat="48.72811" lon="7.04474">
        <ele>252.6</ele>
        <time>2024-02-01T17:27:33Z</time>
      </trkpt>
      <trkpt lat="48.72801" lon="7.04481">
        <ele>252.5</ele>
        <time>2024-02-01T17:27:35Z</time>
      </trkpt>
      <trkpt lat="48.72793" lon="7.04491">
        <ele>252.5</ele>
        <time>2024-02-01T17:27:37Z</time>
      </trkpt>
      <trkpt lat="48.72782" lon="7.04514">
        <ele>252.5</ele>
        <time>2024-02-01T17:27:40Z</time>
      </trkpt>
      <trkpt lat="48.72773" lon="7.04537">
        <ele>252.5</ele>
        <time>2024-02-01T17:27:43Z</time>
      </trkpt>
      <trkpt lat="48.72763" lon="7.04561">
        <ele>252.4</ele>
        <time>2024-02-01T17:27:46Z</time>
      </trkpt>
      <trkpt lat="48.7275" lon="7.0459">
        <ele>252.4</ele>
        <time>2024-02-01T17:27:50Z</time>
      </trkpt>
      <trkpt lat="48.7274" lon="7.04613">
        <ele>252.3</ele>
        <time>2024-02-01T17:27:55Z</time>
      </trkpt>
      <trkpt lat="48.72737" lon="7.04621">
        <ele>252.3</ele>
        <time>2024-02-01T17:27:58Z</time>
      </trkpt>
      <trkpt lat="48.72735" lon="7.04621">
        <ele>252.3</ele>
        <time>2024-02-01T17:28:00Z</time>
      </trkpt>
      <trkpt lat="48.72733" lon="7.04616">
        <ele>252.3</ele>
        <time>2024-02-01T17:28:02Z</time>
      </trkpt>
      <trkpt lat="48.72741" lon="7.04592">
        <ele>252.3</ele>
        <time>2024-02-01T17:28:12Z</time>
      </trkpt>
      <trkpt lat="48.72739" lon="7.04583">
        <ele>252.4</ele>
        <time>2024-02-01T17:28:21Z</time>
      </trkpt>
      <trkpt lat="48.72738" lon="7.04582">
        <ele>252.4</ele>
        <time>2024-02-01T17:28:23Z</time>
      </trkpt>
      <trkpt lat="48.72742" lon="7.04574">
        <ele>252.4</ele>
        <time>2024-02-01T17:28:29Z</time>
      </trkpt>
      <trkpt lat="48.72755" lon="7.0455">
        <ele>252.4</ele>
        <time>2024-02-01T17:28:37Z</time>
      </trkpt>
      <trkpt lat="48.72768" lon="7.04527">
        <ele>252.5</ele>
        <time>2024-02-01T17:28:45Z</time>
      </trkpt>
      <trkpt lat="48.72777" lon="7.04504">
        <ele>252.5</ele>
        <time>2024-02-01T17:28:52Z</time>
      </trkpt>
      <trkpt lat="48.7279" lon="7.04488">
        <ele>252.5</ele>
        <time>2024-02-01T17:29:00Z</time>
      </trkpt>
      <trkpt lat="48.72789" lon="7.04493">
        <ele>252.5</ele>
        <time>2024-02-01T17:29:02Z</time>
      </trkpt>
      <trkpt lat="48.7278" lon="7.04514">
        <ele>252.5</ele>
        <time>2024-02-01T17:29:11Z</time>
      </trkpt>
      <trkpt lat="48.72781" lon="7.04512">
        <ele>252.5</ele>
        <time>2024-02-01T17:29:13Z</time>
      </trkpt>
      <trkpt lat="48.72793" lon="7.04488">
        <ele>252.6</ele>
        <time>2024-02-01T17:29:22Z</time>
      </trkpt>
      <trkpt lat="48.72808" lon="7.04475">
        <ele>252.6</ele>
        <time>2024-02-01T17:29:32Z</time>
      </trkpt>
      <trkpt lat="48.72828" lon="7.04481">
        <ele>252.6</ele>
        <time>2024-02-01T17:29:40Z</time>
      </trkpt>
      <trkpt lat="48.72844" lon="7.04494">
        <ele>252.8</ele>
        <time>2024-02-01T17:29:47Z</time>
      </trkpt>
      <trkpt lat="48.72857" lon="7.04518">
        <ele>252.9</ele>
        <time>2024-02-01T17:29:55Z</time>
      </trkpt>
      <trkpt lat="48.72859" lon="7.04545">
        <ele>252.9</ele>
        <time>2024-02-01T17:30:02Z</time>
      </trkpt>
      <trkpt lat="48.72856" lon="7.0456">
        <ele>253</ele>
        <time>2024-02-01T17:30:09Z</time>
      </trkpt>
      <trkpt lat="48.72844" lon="7.04586">
        <ele>253</ele>
        <time>2024-02-01T17:30:14Z</time>
      </trkpt>
      <trkpt lat="48.72831" lon="7.04616">
        <ele>252.9</ele>
        <time>2024-02-01T17:30:17Z</time>
      </trkpt>
      <trkpt lat="48.7282" lon="7.04645">
        <ele>252.8</ele>
        <time>2024-02-01T17:30:20Z</time>
      </trkpt>
      <trkpt lat="48.72812" lon="7.04661">
        <ele>252.7</ele>
        <time>2024-02-01T17:30:22Z</time>
      </trkpt>
      <trkpt lat="48.72798" lon="7.04677">
        <ele>252.6</ele>
        <time>2024-02-01T17:30:25Z</time>
      </trkpt>
      <trkpt lat="48.72787" lon="7.04681">
        <ele>252.6</ele>
        <time>2024-02-01T17:30:29Z</time>
      </trkpt>
      <trkpt lat="48.72777" lon="7.04676">
        <ele>253</ele>
        <time>2024-02-01T17:30:34Z</time>
      </trkpt>
      <trkpt lat="48.72776" lon="7.04678">
        <ele>253.5</ele>
        <time>2024-02-01T17:30:36Z</time>
      </trkpt>
      <trkpt lat="48.72784" lon="7.04695">
        <ele>253.9</ele>
        <time>2024-02-01T17:30:48Z</time>
      </trkpt>
      <trkpt lat="48.72778" lon="7.04717">
        <ele>254.5</ele>
        <time>2024-02-01T17:30:58Z</time>
      </trkpt>
      <trkpt lat="48.72765" lon="7.04696">
        <ele>254.4</ele>
        <time>2024-02-01T17:31:09Z</time>
      </trkpt>
      <trkpt lat="48.72754" lon="7.04675">
        <ele>254.2</ele>
        <time>2024-02-01T17:31:19Z</time>
      </trkpt>
      <trkpt lat="48.72744" lon="7.04651">
        <ele>254</ele>
        <time>2024-02-01T17:31:29Z</time>
      </trkpt>
      <trkpt lat="48.72734" lon="7.04627">
        <ele>253.8</ele>
        <time>2024-02-01T17:31:40Z</time>
      </trkpt>
      <trkpt lat="48.72728" lon="7.04619">
        <ele>253.7</ele>
        <time>2024-02-01T17:31:48Z</time>
      </trkpt>
      <trkpt lat="48.72729" lon="7.04622">
        <ele>253.7</ele>
        <time>2024-02-01T17:31:53Z</time>
      </trkpt>
      <trkpt lat="48.72739" lon="7.04646">
        <ele>254</ele>
        <time>2024-02-01T17:32:06Z</time>
      </trkpt>
      <trkpt lat="48.72752" lon="7.04667">
        <ele>254.1</ele>
        <time>2024-02-01T17:32:14Z</time>
      </trkpt>
      <trkpt lat="48.72763" lon="7.04688">
        <ele>254.3</ele>
        <time>2024-02-01T17:32:22Z</time>
      </trkpt>
      <trkpt lat="48.72776" lon="7.04712">
        <ele>254.5</ele>
        <time>2024-02-01T17:32:31Z</time>
      </trkpt>
      <trkpt lat="48.72786" lon="7.04736">
        <ele>254.8</ele>
        <time>2024-02-01T17:32:41Z</time>
      </trkpt>
      <trkpt lat="48.72787" lon="7.04734">
        <ele>254.7</ele>
        <time>2024-02-01T17:32:43Z</time>
      </trkpt>
      <trkpt lat="48.72802" lon="7.04713">
        <ele>253.8</ele>
        <time>2024-02-01T17:32:52Z</time>
      </trkpt>
      <trkpt lat="48.72813" lon="7.0469">
        <ele>253.2</ele>
        <time>2024-02-01T17:33:00Z</time>
      </trkpt>
      <trkpt lat="48.72821" lon="7.04663">
        <ele>252.8</ele>
        <time>2024-02-01T17:33:09Z</time>
      </trkpt>
      <trkpt lat="48.72832" lon="7.04641">
        <ele>252.6</ele>
        <time>2024-02-01T17:33:16Z</time>
      </trkpt>
      <trkpt lat="48.72843" lon="7.04618">
        <ele>252.3</ele>
        <time>2024-02-01T17:33:23Z</time>
      </trkpt>
      <trkpt lat="48.72853" lon="7.04593">
        <ele>251.8</ele>
        <time>2024-02-01T17:33:32Z</time>
      </trkpt>
      <trkpt lat="48.72867" lon="7.04577">
        <ele>250.5</ele>
        <time>2024-02-01T17:33:43Z</time>
      </trkpt>
      <trkpt lat="48.72884" lon="7.04564">
        <ele>249.2</ele>
        <time>2024-02-01T17:33:51Z</time>
      </trkpt>
      <trkpt lat="48.72898" lon="7.04543">
        <ele>248.9</ele>
        <time>2024-02-01T17:33:59Z</time>
      </trkpt>
      <trkpt lat="48.72913" lon="7.04527">
        <ele>248.8</ele>
        <time>2024-02-01T17:34:07Z</time>
      </trkpt>
      <trkpt lat="48.72926" lon="7.04508">
        <ele>248.8</ele>
        <time>2024-02-01T17:34:15Z</time>
      </trkpt>
      <trkpt lat="48.72941" lon="7.0449">
        <ele>248.8</ele>
        <time>2024-02-01T17:34:24Z</time>
      </trkpt>
      <trkpt lat="48.72956" lon="7.04477">
        <ele>248.9</ele>
        <time>2024-02-01T17:34:33Z</time>
      </trkpt>
      <trkpt lat="48.72969" lon="7.04456">
        <ele>249</ele>
        <time>2024-02-01T17:34:43Z</time>
      </trkpt>
      <trkpt lat="48.72974" lon="7.04429">
        <ele>249.2</ele>
        <time>2024-02-01T17:34:54Z</time>
      </trkpt>
      <trkpt lat="48.72964" lon="7.04406">
        <ele>249.4</ele>
        <time>2024-02-01T17:35:04Z</time>
      </trkpt>
      <trkpt lat="48.72949" lon="7.04389">
        <ele>249.5</ele>
        <time>2024-02-01T17:35:13Z</time>
      </trkpt>
      <trkpt lat="48.72932" lon="7.04379">
        <ele>249.6</ele>
        <time>2024-02-01T17:35:21Z</time>
      </trkpt>
      <trkpt lat="48.72914" lon="7.04369">
        <ele>249.7</ele>
        <time>2024-02-01T17:35:30Z</time>
      </trkpt>
      <trkpt lat="48.72898" lon="7.04355">
        <ele>249.9</ele>
        <time>2024-02-01T17:35:39Z</time>
      </trkpt>
      <trkpt lat="48.72885" lon="7.04332">
        <ele>250.1</ele>
        <time>2024-02-01T17:35:50Z</time>
      </trkpt>
      <trkpt lat="48.72874" lon="7.04308">
        <ele>250.2</ele>
        <time>2024-02-01T17:36:01Z</time>
      </trkpt>
      <trkpt lat="48.72868" lon="7.04279">
        <ele>250.2</ele>
        <time>2024-02-01T17:36:11Z</time>
      </trkpt>
      <trkpt lat="48.72865" lon="7.04253">
        <ele>250.2</ele>
        <time>2024-02-01T17:36:19Z</time>
      </trkpt>
      <trkpt lat="48.72852" lon="7.0423">
        <ele>250.3</ele>
        <time>2024-02-01T17:36:29Z</time>
      </trkpt>
      <trkpt lat="48.72838" lon="7.04213">
        <ele>250.3</ele>
        <time>2024-02-01T17:36:38Z</time>
      </trkpt>
      <trkpt lat="48.72826" lon="7.04209">
        <ele>250.3</ele>
        <time>2024-02-01T17:36:46Z</time>
      </trkpt>
      <trkpt lat="48.72824" lon="7.04213">
        <ele>250.3</ele>
        <time>2024-02-01T17:36:48Z</time>
      </trkpt>
      <trkpt lat="48.72835" lon="7.04237">
        <ele>250.3</ele>
        <time>2024-02-01T17:36:58Z</time>
      </trkpt>
      <trkpt lat="48.72849" lon="7.04257">
        <ele>250.2</ele>
        <time>2024-02-01T17:37:07Z</time>
      </trkpt>
      <trkpt lat="48.72853" lon="7.04272">
        <ele>250.2</ele>
        <time>2024-02-01T17:37:12Z</time>
      </trkpt>
      <trkpt lat="48.72844" lon="7.04295">
        <ele>250.2</ele>
        <time>2024-02-01T17:37:19Z</time>
      </trkpt>
      <trkpt lat="48.72831" lon="7.04318">
        <ele>250.3</ele>
        <time>2024-02-01T17:37:27Z</time>
      </trkpt>
      <trkpt lat="48.72818" lon="7.04337">
        <ele>250.3</ele>
        <time>2024-02-01T17:37:34Z</time>
      </trkpt>
      <trkpt lat="48.72805" lon="7.04358">
        <ele>250.4</ele>
        <time>2024-02-01T17:37:42Z</time>
      </trkpt>
      <trkpt lat="48.72803" lon="7.04386">
        <ele>250.8</ele>
        <time>2024-02-01T17:37:51Z</time>
      </trkpt>
      <trkpt lat="48.72806" lon="7.04413">
        <ele>251.3</ele>
        <time>2024-02-01T17:37:59Z</time>
      </trkpt>
      <trkpt lat="48.72803" lon="7.04442">
        <ele>251.6</ele>
        <time>2024-02-01T17:38:07Z</time>
      </trkpt>
      <trkpt lat="48.72798" lon="7.04468">
        <ele>251.8</ele>
        <time>2024-02-01T17:38:15Z</time>
      </trkpt>
      <trkpt lat="48.72788" lon="7.04491">
        <ele>252.1</ele>
        <time>2024-02-01T17:38:22Z</time>
      </trkpt>
      <trkpt lat="48.72777" lon="7.04514">
        <ele>252.4</ele>
        <time>2024-02-01T17:38:29Z</time>
      </trkpt>
      <trkpt lat="48.72768" lon="7.04537">
        <ele>252.6</ele>
        <time>2024-02-01T17:38:38Z</time>
      </trkpt>
      <trkpt lat="48.72767" lon="7.04538">
        <ele>252.6</ele>
        <time>2024-02-01T17:38:39Z</time>
      </trkpt>
    </trkseg>
  </trk>
</gpx>